Wetterdaten: Mittwoch, 13.09.2023
Datum Zeit Temp. Aussen Temp. o. S. Temp +5cm Feuchte Auss Luftdruck Regen Sonnenschein Regendauer Solar Windben Empfang
13.09.2023 00:00 20,2 C 18,9 C 15,6 C 98 % 1013,2 hPa 0,0 l/m 0 min 0 min 0 W/m 6,4 km/h (2 Bft) 100,00 %
13.09.2023 00:02 20,1 C 18,9 C 15,6 C 98 % 1013,2 hPa 0,0 l/m 0 min 2 min 0 W/m 9,7 km/h (2 Bft) 97,30 %
13.09.2023 00:04 20,1 C 18,9 C 15,6 C 98 % 1013,2 hPa 0,0 l/m 0 min 2 min 0 W/m 9,7 km/h (2 Bft) 100,00 %
13.09.2023 00:10 19,9 C 18,9 C 15,6 C 97 % 1013,1 hPa 0,0 l/m 0 min 0 min 0 W/m 12,9 km/h (3 Bft) 100,00 %
13.09.2023 00:12 19,9 C 18,9 C 15,0 C 97 % 1013,0 hPa 0,0 l/m 0 min 0 min 0 W/m 6,4 km/h (2 Bft) 97,83 %
13.09.2023 00:16 19,8 C 18,9 C 15,0 C 98 % 1013,1 hPa 0,0 l/m 0 min 0 min 0 W/m 6,4 km/h (2 Bft) 98,94 %
13.09.2023 00:18 19,8 C 18,9 C 15,0 C 98 % 1013,1 hPa 0,0 l/m 0 min 0 min 0 W/m 6,4 km/h (2 Bft) 100,00 %
13.09.2023 00:20 19,8 C 18,9 C 15,0 C 98 % 1013,0 hPa 0,0 l/m 0 min 0 min 0 W/m 6,4 km/h (2 Bft) 100,00 %
13.09.2023 00:22 19,7 C 18,9 C 15,0 C 98 % 1013,0 hPa 0,0 l/m 0 min 0 min 0 W/m 3,2 km/h (1 Bft) 97,87 %
13.09.2023 00:24 19,7 C 18,9 C 15,0 C 98 % 1013,1 hPa 0,0 l/m 0 min 0 min 0 W/m 6,4 km/h (2 Bft) 100,00 %
13.09.2023 00:26 19,7 C 18,9 C 15,0 C 98 % 1013,0 hPa 0,2 l/m 0 min 2 min 0 W/m 9,7 km/h (2 Bft) 100,00 %
13.09.2023 00:28 19,7 C 18,9 C 15,0 C 97 % 1013,1 hPa 0,0 l/m 0 min 2 min 0 W/m 6,4 km/h (2 Bft) 100,00 %
13.09.2023 00:30 19,7 C 18,9 C 15,0 C 98 % 1013,0 hPa 0,0 l/m 0 min 2 min 0 W/m 3,2 km/h (1 Bft) 100,00 %
13.09.2023 00:32 19,7 C 18,9 C 15,0 C 98 % 1013,1 hPa 0,0 l/m 0 min 2 min 0 W/m 3,2 km/h (1 Bft) 95,74 %
13.09.2023 00:34 19,7 C 18,9 C 15,0 C 98 % 1013,1 hPa 0,0 l/m 0 min 2 min 0 W/m 3,2 km/h (1 Bft) 97,87 %
13.09.2023 00:36 19,7 C 18,9 C 15,0 C 98 % 1013,1 hPa 0,0 l/m 0 min 2 min 0 W/m 6,4 km/h (2 Bft) 97,87 %
13.09.2023 00:38 19,6 C 18,3 C 15,0 C 98 % 1013,1 hPa 0,0 l/m 0 min 2 min 0 W/m 3,2 km/h (1 Bft) 97,87 %
13.09.2023 00:40 19,6 C 18,3 C 15,0 C 98 % 1013,1 hPa 0,2 l/m 0 min 0 min 0 W/m 6,4 km/h (2 Bft) 97,83 %
13.09.2023 00:42 19,6 C 18,3 C 15,0 C 98 % 1013,1 hPa 0,0 l/m 0 min 0 min 0 W/m 6,4 km/h (2 Bft) 95,74 %
13.09.2023 00:44 19,6 C 18,3 C 15,0 C 98 % 1013,1 hPa 0,0 l/m 0 min 2 min 0 W/m 6,4 km/h (2 Bft) 95,74 %
13.09.2023 00:46 19,5 C 18,3 C 15,0 C 98 % 1013,1 hPa 0,0 l/m 0 min 0 min 0 W/m 6,4 km/h (2 Bft) 97,87 %
13.09.2023 00:48 19,4 C 18,3 C 15,0 C 98 % 1013,2 hPa 0,0 l/m 0 min 0 min 0 W/m 6,4 km/h (2 Bft) 97,87 %
13.09.2023 00:50 19,4 C 18,3 C 15,0 C 98 % 1013,2 hPa 0,0 l/m 0 min 0 min 0 W/m 6,4 km/h (2 Bft) 95,74 %
13.09.2023 00:52 19,4 C 18,3 C 15,0 C 98 % 1013,2 hPa 0,0 l/m 0 min 0 min 0 W/m 6,4 km/h (2 Bft) 97,83 %
13.09.2023 00:54 19,4 C 18,3 C 15,0 C 98 % 1013,2 hPa 0,0 l/m 0 min 0 min 0 W/m 6,4 km/h (2 Bft) 95,74 %
13.09.2023 00:56 19,4 C 18,3 C 15,0 C 98 % 1013,2 hPa 0,0 l/m 0 min 0 min 0 W/m 6,4 km/h (2 Bft) 95,74 %
13.09.2023 00:58 19,4 C 18,3 C 15,0 C 98 % 1013,2 hPa 0,0 l/m 0 min 0 min 0 W/m 3,2 km/h (1 Bft) 97,14 %
13.09.2023 01:00 19,3 C 18,3 C 15,0 C 98 % 1013,2 hPa 0,0 l/m 0 min 0 min 0 W/m 12,9 km/h (3 Bft) 95,74 %
13.09.2023 01:02 19,3 C 18,3 C 15,0 C 98 % 1013,2 hPa 0,0 l/m 0 min 0 min 0 W/m 6,4 km/h (2 Bft) 91,49 %
13.09.2023 01:04 19,3 C 18,3 C 15,0 C 98 % 1013,1 hPa 0,0 l/m 0 min 2 min 0 W/m 6,4 km/h (2 Bft) 95,45 %
13.09.2023 01:06 19,3 C 18,3 C 15,0 C 98 % 1013,1 hPa 0,0 l/m 0 min 2 min 0 W/m 6,4 km/h (2 Bft) 95,74 %
13.09.2023 01:08 19,3 C 18,3 C 15,0 C 98 % 1013,1 hPa 0,0 l/m 0 min 2 min 0 W/m 6,4 km/h (2 Bft) 93,62 %
13.09.2023 01:10 19,3 C 18,3 C 15,0 C 98 % 1013,1 hPa 0,0 l/m 0 min 2 min 0 W/m 6,4 km/h (2 Bft) 95,74 %
13.09.2023 01:12 19,3 C 18,3 C 15,0 C 98 % 1013,2 hPa 0,0 l/m 0 min 2 min 0 W/m 6,4 km/h (2 Bft) 95,74 %
13.09.2023 01:14 19,3 C 18,3 C 15,0 C 98 % 1013,1 hPa 0,0 l/m 0 min 0 min 0 W/m 6,4 km/h (2 Bft) 95,74 %
13.09.2023 01:16 19,3 C 18,3 C 15,0 C 98 % 1013,1 hPa 0,0 l/m 0 min 0 min 0 W/m 9,7 km/h (2 Bft) 95,74 %
13.09.2023 01:18 19,3 C 18,3 C 15,0 C 98 % 1013,1 hPa 0,0 l/m 0 min 0 min 0 W/m 6,4 km/h (2 Bft) 95,65 %
13.09.2023 01:20 19,3 C 18,3 C 15,0 C 98 % 1013,1 hPa 0,0 l/m 0 min 0 min 0 W/m 6,4 km/h (2 Bft) 93,62 %
13.09.2023 01:22 19,3 C 18,3 C 15,0 C 98 % 1013,1 hPa 0,0 l/m 0 min 0 min 0 W/m 6,4 km/h (2 Bft) 97,87 %
13.09.2023 01:24 19,3 C 18,3 C 15,0 C 98 % 1013,1 hPa 0,0 l/m 0 min 0 min 0 W/m 6,4 km/h (2 Bft) 100,00 %
13.09.2023 01:26 19,3 C 18,3 C 15,0 C 98 % 1013,0 hPa 0,0 l/m 0 min 0 min 0 W/m 3,2 km/h (1 Bft) 100,00 %
13.09.2023 01:28 19,3 C 18,3 C 15,0 C 98 % 1013,0 hPa 0,0 l/m 0 min 0 min 0 W/m 9,7 km/h (2 Bft) 100,00 %
13.09.2023 01:30 19,2 C 18,3 C 15,0 C 98 % 1013,0 hPa 0,0 l/m 0 min 0 min 0 W/m 3,2 km/h (1 Bft) 100,00 %
13.09.2023 01:32 19,2 C 18,3 C 15,0 C 98 % 1012,9 hPa 0,0 l/m 0 min 0 min 0 W/m 3,2 km/h (1 Bft) 100,00 %
13.09.2023 01:34 19,2 C 18,3 C 15,0 C 98 % 1013,0 hPa 0,0 l/m 0 min 0 min 0 W/m 9,7 km/h (2 Bft) 100,00 %
13.09.2023 01:36 19,2 C 18,3 C 14,4 C 98 % 1012,9 hPa 0,0 l/m 0 min 0 min 0 W/m 6,4 km/h (2 Bft) 100,00 %
13.09.2023 01:38 19,2 C 18,3 C 14,4 C 98 % 1012,9 hPa 0,0 l/m 0 min 0 min 0 W/m 3,2 km/h (1 Bft) 100,00 %
13.09.2023 01:40 19,2 C 18,3 C 15,0 C 98 % 1012,8 hPa 0,0 l/m 0 min 0 min 0 W/m 0,0 km/h (0 Bft) 100,00 %
13.09.2023 01:42 19,1 C 18,3 C 15,0 C 98 % 1012,8 hPa 0,0 l/m 0 min 0 min 0 W/m 6,4 km/h (2 Bft) 100,00 %
13.09.2023 01:44 19,1 C 18,3 C 15,0 C 98 % 1012,8 hPa 0,0 l/m 0 min 0 min 0 W/m 3,2 km/h (1 Bft) 97,87 %
13.09.2023 01:46 19,1 C 18,3 C 15,0 C 98 % 1012,8 hPa 0,0 l/m 0 min 0 min 0 W/m 6,4 km/h (2 Bft) 100,00 %
13.09.2023 01:48 19,1 C 18,3 C 15,0 C 98 % 1012,8 hPa 0,0 l/m 0 min 0 min 0 W/m 6,4 km/h (2 Bft) 100,00 %
13.09.2023 01:50 19,1 C 18,3 C 15,0 C 98 % 1012,7 hPa 0,0 l/m 0 min 0 min 0 W/m 0,0 km/h (0 Bft) 97,87 %
13.09.2023 01:52 19,1 C 18,3 C 15,0 C 98 % 1012,7 hPa 0,0 l/m 0 min 0 min 0 W/m 6,4 km/h (2 Bft) 97,87 %
13.09.2023 01:54 19,1 C 18,3 C 15,0 C 98 % 1012,7 hPa 0,0 l/m 0 min 0 min 0 W/m 3,2 km/h (1 Bft) 97,87 %
13.09.2023 01:56 19,2 C 18,3 C 15,0 C 98 % 1012,7 hPa 0,0 l/m 0 min 0 min 0 W/m 0,0 km/h (0 Bft) 97,87 %
13.09.2023 01:58 19,2 C 18,3 C 15,0 C 98 % 1012,7 hPa 0,2 l/m 0 min 0 min 0 W/m 0,0 km/h (0 Bft) 97,83 %
13.09.2023 02:00 19,2 C 18,3 C 15,0 C 98 % 1012,7 hPa 0,0 l/m 0 min 0 min 0 W/m 16,1 km/h (3 Bft) 95,74 %
13.09.2023 02:02 19,2 C 18,3 C 15,0 C 98 % 1012,8 hPa 0,0 l/m 0 min 0 min 0 W/m 3,2 km/h (1 Bft) 98,11 %
13.09.2023 02:04 19,2 C 18,3 C 15,0 C 98 % 1012,8 hPa 0,0 l/m 0 min 0 min 0 W/m 9,7 km/h (2 Bft) 95,65 %
13.09.2023 02:06 19,2 C 18,3 C 14,4 C 98 % 1012,7 hPa 0,0 l/m 0 min 0 min 0 W/m 6,4 km/h (2 Bft) 97,87 %
13.09.2023 02:08 19,2 C 18,3 C 15,0 C 98 % 1012,7 hPa 0,0 l/m 0 min 0 min 0 W/m 9,7 km/h (2 Bft) 97,14 %
13.09.2023 02:10 19,1 C 18,3 C 15,0 C 98 % 1012,7 hPa 0,0 l/m 0 min 0 min 0 W/m 6,4 km/h (2 Bft) 98,28 %
13.09.2023 02:12 19,1 C 18,3 C 15,0 C 98 % 1012,7 hPa 0,0 l/m 0 min 0 min 0 W/m 3,2 km/h (1 Bft) 97,14 %
13.09.2023 02:14 19,1 C 18,3 C 15,0 C 98 % 1012,7 hPa 0,0 l/m 0 min 0 min 0 W/m 12,9 km/h (3 Bft) 97,87 %
13.09.2023 02:16 19,1 C 18,3 C 15,0 C 98 % 1012,7 hPa 0,0 l/m 0 min 0 min 0 W/m 6,4 km/h (2 Bft) 97,87 %
13.09.2023 02:18 19,1 C 18,3 C 15,0 C 98 % 1012,8 hPa 0,0 l/m 0 min 0 min 0 W/m 6,4 km/h (2 Bft) 97,87 %
13.09.2023 02:20 19,1 C 18,3 C 14,4 C 98 % 1012,7 hPa 0,0 l/m 0 min 0 min 0 W/m 6,4 km/h (2 Bft) 93,62 %
13.09.2023 02:22 19,1 C 18,3 C 14,4 C 98 % 1012,7 hPa 0,0 l/m 0 min 0 min 0 W/m 6,4 km/h (2 Bft) 97,87 %
13.09.2023 02:24 19,1 C 18,3 C 15,0 C 98 % 1012,7 hPa 0,0 l/m 0 min 0 min 0 W/m 6,4 km/h (2 Bft) 97,83 %
13.09.2023 02:26 19,0 C 18,3 C 14,4 C 98 % 1012,8 hPa 0,0 l/m 0 min 0 min 0 W/m 3,2 km/h (1 Bft) 97,87 %
13.09.2023 02:28 19,0 C 18,3 C 15,0 C 98 % 1012,8 hPa 0,0 l/m 0 min 0 min 0 W/m 6,4 km/h (2 Bft) 97,87 %
13.09.2023 02:30 19,0 C 18,3 C 14,4 C 98 % 1012,8 hPa 0,0 l/m 0 min 0 min 0 W/m 6,4 km/h (2 Bft) 97,87 %
13.09.2023 02:32 19,0 C 18,3 C 14,4 C 98 % 1012,8 hPa 0,0 l/m 0 min 0 min 0 W/m 12,9 km/h (3 Bft) 95,74 %
13.09.2023 02:34 18,9 C 18,3 C 14,4 C 98 % 1012,8 hPa 0,0 l/m 0 min 0 min 0 W/m 3,2 km/h (1 Bft) 97,87 %
13.09.2023 02:36 18,9 C 17,8 C 14,4 C 98 % 1012,8 hPa 0,0 l/m 0 min 0 min 0 W/m 3,2 km/h (1 Bft) 95,65 %
13.09.2023 02:38 18,9 C 17,8 C 14,4 C 98 % 1012,9 hPa 0,0 l/m 0 min 0 min 0 W/m 6,4 km/h (2 Bft) 97,87 %
13.09.2023 02:40 18,9 C 17,8 C 14,4 C 98 % 1012,9 hPa 0,0 l/m 0 min 0 min 0 W/m 6,4 km/h (2 Bft) 97,87 %
13.09.2023 02:42 18,9 C 17,8 C 14,4 C 98 % 1012,9 hPa 0,0 l/m 0 min 0 min 0 W/m 6,4 km/h (2 Bft) 100,00 %
13.09.2023 02:44 18,8 C 17,8 C 14,4 C 98 % 1012,9 hPa 0,0 l/m 0 min 0 min 0 W/m 6,4 km/h (2 Bft) 97,87 %
13.09.2023 02:46 18,8 C 17,8 C 14,4 C 98 % 1012,8 hPa 0,0 l/m 0 min 0 min 0 W/m 9,7 km/h (2 Bft) 97,87 %
13.09.2023 02:48 18,8 C 17,8 C 14,4 C 98 % 1012,9 hPa 0,0 l/m 0 min 0 min 0 W/m 6,4 km/h (2 Bft) 97,83 %
13.09.2023 02:50 18,8 C 17,8 C 14,4 C 98 % 1012,9 hPa 0,0 l/m 0 min 0 min 0 W/m 3,2 km/h (1 Bft) 97,87 %
13.09.2023 02:52 18,8 C 17,8 C 14,4 C 98 % 1012,9 hPa 0,0 l/m 0 min 0 min 0 W/m 3,2 km/h (1 Bft) 97,87 %
13.09.2023 02:54 18,8 C 17,8 C 14,4 C 98 % 1013,0 hPa 0,0 l/m 0 min 0 min 0 W/m 0,0 km/h (0 Bft) 93,62 %
13.09.2023 02:56 18,8 C 17,8 C 14,4 C 98 % 1013,0 hPa 0,0 l/m 0 min 0 min 0 W/m 0,0 km/h (0 Bft) 97,87 %
13.09.2023 02:58 18,8 C 17,8 C 14,4 C 98 % 1013,0 hPa 0,0 l/m 0 min 0 min 0 W/m 0,0 km/h (0 Bft) 97,87 %
13.09.2023 03:00 18,8 C 17,8 C 14,4 C 98 % 1013,0 hPa 0,0 l/m 0 min 0 min 0 W/m 0,0 km/h (0 Bft) 95,65 %
13.09.2023 03:02 18,8 C 17,8 C 14,4 C 99 % 1013,0 hPa 0,0 l/m 0 min 0 min 0 W/m 0,0 km/h (0 Bft) 95,74 %
13.09.2023 03:04 18,8 C 17,8 C 14,4 C 98 % 1013,0 hPa 0,0 l/m 0 min 0 min 0 W/m 0,0 km/h (0 Bft) 98,00 %
13.09.2023 03:06 18,7 C 17,8 C 14,4 C 98 % 1013,0 hPa 0,0 l/m 0 min 0 min 0 W/m 0,0 km/h (0 Bft) 97,87 %
13.09.2023 03:08 18,7 C 17,8 C 14,4 C 99 % 1013,0 hPa 0,0 l/m 0 min 0 min 0 W/m 0,0 km/h (0 Bft) 93,62 %
13.09.2023 03:10 18,7 C 17,8 C 14,4 C 99 % 1013,0 hPa 0,0 l/m 0 min 0 min 0 W/m 0,0 km/h (0 Bft) 97,87 %
13.09.2023 03:12 18,7 C 17,8 C 14,4 C 99 % 1013,1 hPa 0,0 l/m 0 min 0 min 0 W/m 0,0 km/h (0 Bft) 95,74 %
13.09.2023 03:14 18,8 C 17,8 C 14,4 C 99 % 1013,1 hPa 0,0 l/m 0 min 0 min 0 W/m 0,0 km/h (0 Bft) 97,83 %
13.09.2023 03:16 18,8 C 17,8 C 14,4 C 99 % 1013,1 hPa 0,0 l/m 0 min 0 min 0 W/m 0,0 km/h (0 Bft) 100,00 %
13.09.2023 03:18 18,8 C 17,8 C 14,4 C 99 % 1013,1 hPa 0,0 l/m 0 min 0 min 0 W/m 0,0 km/h (0 Bft) 97,87 %
13.09.2023 03:20 18,8 C 17,8 C 14,4 C 99 % 1013,1 hPa 0,0 l/m 0 min 0 min 0 W/m 0,0 km/h (0 Bft) 100,00 %
13.09.2023 03:22 18,8 C 17,8 C 14,4 C 99 % 1013,1 hPa 0,0 l/m 0 min 0 min 0 W/m 0,0 km/h (0 Bft) 95,74 %
13.09.2023 03:24 18,8 C 17,8 C 14,4 C 99 % 1013,1 hPa 0,0 l/m 0 min 0 min 0 W/m 0,0 km/h (0 Bft) 97,87 %
13.09.2023 03:26 18,8 C 17,8 C 14,4 C 99 % 1013,1 hPa 0,0 l/m 0 min 0 min 0 W/m 0,0 km/h (0 Bft) 95,74 %
13.09.2023 03:28 18,8 C 18,3 C 14,4 C 99 % 1013,0 hPa 0,0 l/m 0 min 0 min 0 W/m 0,0 km/h (0 Bft) 97,83 %
13.09.2023 03:30 18,8 C 18,3 C 14,4 C 99 % 1013,1 hPa 0,0 l/m 0 min 0 min 0 W/m 0,0 km/h (0 Bft) 97,87 %
13.09.2023 03:32 18,8 C 18,3 C 15,0 C 99 % 1013,1 hPa 0,0 l/m 0 min 0 min 0 W/m 0,0 km/h (0 Bft) 95,74 %
13.09.2023 03:34 18,8 C 18,3 C 14,4 C 99 % 1013,1 hPa 0,0 l/m 0 min 0 min 0 W/m 0,0 km/h (0 Bft) 95,74 %
13.09.2023 03:36 18,8 C 18,3 C 14,4 C 99 % 1013,1 hPa 0,0 l/m 0 min 0 min 0 W/m 0,0 km/h (0 Bft) 97,87 %
13.09.2023 03:38 18,8 C 17,8 C 14,4 C 99 % 1013,2 hPa 0,0 l/m 0 min 0 min 0 W/m 0,0 km/h (0 Bft) 95,74 %
13.09.2023 03:40 18,8 C 17,8 C 14,4 C 99 % 1013,1 hPa 0,0 l/m 0 min 0 min 0 W/m 0,0 km/h (0 Bft) 97,87 %
13.09.2023 03:42 18,8 C 17,8 C 14,4 C 99 % 1013,1 hPa 0,0 l/m 0 min 0 min 0 W/m 0,0 km/h (0 Bft) 95,65 %
13.09.2023 03:44 18,8 C 17,8 C 14,4 C 99 % 1013,2 hPa 0,0 l/m 0 min 0 min 0 W/m 0,0 km/h (0 Bft) 95,74 %
13.09.2023 03:46 18,8 C 18,3 C 14,4 C 99 % 1013,2 hPa 0,0 l/m 0 min 0 min 0 W/m 0,0 km/h (0 Bft) 97,87 %
13.09.2023 03:48 18,9 C 18,3 C 14,4 C 99 % 1013,2 hPa 0,0 l/m 0 min 0 min 0 W/m 0,0 km/h (0 Bft) 97,87 %
13.09.2023 03:50 18,9 C 18,3 C 14,4 C 99 % 1013,2 hPa 0,0 l/m 0 min 0 min 0 W/m 0,0 km/h (0 Bft) 97,87 %
13.09.2023 03:52 18,9 C 18,3 C 15,0 C 99 % 1013,3 hPa 0,0 l/m 0 min 0 min 0 W/m 0,0 km/h (0 Bft) 95,74 %
13.09.2023 03:54 18,9 C 18,3 C 14,4 C 99 % 1013,2 hPa 0,0 l/m 0 min 0 min 0 W/m 0,0 km/h (0 Bft) 95,74 %
13.09.2023 03:56 18,9 C 18,3 C 14,4 C 99 % 1013,3 hPa 0,0 l/m 0 min 0 min 0 W/m 0,0 km/h (0 Bft) 95,65 %
13.09.2023 03:58 18,9 C 18,3 C 15,0 C 99 % 1013,3 hPa 0,0 l/m 0 min 0 min 0 W/m 0,0 km/h (0 Bft) 97,87 %
13.09.2023 04:00 18,9 C 18,3 C 15,0 C 99 % 1013,3 hPa 0,0 l/m 0 min 0 min 0 W/m 0,0 km/h (0 Bft) 97,87 %
13.09.2023 04:02 18,9 C 18,3 C 15,0 C 99 % 1013,2 hPa 0,0 l/m 0 min 0 min 0 W/m 0,0 km/h (0 Bft) 100,00 %
13.09.2023 04:04 18,9 C 18,3 C 14,4 C 99 % 1013,3 hPa 0,0 l/m 0 min 0 min 0 W/m 0,0 km/h (0 Bft) 100,00 %
13.09.2023 04:06 18,9 C 18,3 C 14,4 C 99 % 1013,3 hPa 0,0 l/m 0 min 0 min 0 W/m 0,0 km/h (0 Bft) 97,87 %
13.09.2023 04:08 18,9 C 18,3 C 14,4 C 99 % 1013,2 hPa 0,0 l/m 0 min 0 min 0 W/m 6,4 km/h (2 Bft) 95,74 %
13.09.2023 04:10 18,9 C 18,3 C 14,4 C 99 % 1013,2 hPa 0,0 l/m 0 min 0 min 0 W/m 6,4 km/h (2 Bft) 97,83 %
13.09.2023 04:12 18,9 C 18,3 C 14,4 C 99 % 1013,2 hPa 0,0 l/m 0 min 0 min 0 W/m 6,4 km/h (2 Bft) 97,87 %
13.09.2023 04:14 18,9 C 18,3 C 14,4 C 99 % 1013,3 hPa 0,0 l/m 0 min 0 min 0 W/m 3,2 km/h (1 Bft) 100,00 %
13.09.2023 04:16 18,9 C 18,3 C 14,4 C 99 % 1013,2 hPa 0,0 l/m 0 min 0 min 0 W/m 6,4 km/h (2 Bft) 100,00 %
13.09.2023 04:18 18,9 C 18,3 C 14,4 C 99 % 1013,2 hPa 0,0 l/m 0 min 0 min 0 W/m 3,2 km/h (1 Bft) 100,00 %
13.09.2023 04:20 18,9 C 18,3 C 14,4 C 99 % 1013,3 hPa 0,0 l/m 0 min 0 min 0 W/m 3,2 km/h (1 Bft) 100,00 %
13.09.2023 04:22 18,9 C 18,3 C 14,4 C 99 % 1013,3 hPa 0,0 l/m 0 min 0 min 0 W/m 6,4 km/h (2 Bft) 100,00 %
13.09.2023 04:24 18,9 C 18,3 C 14,4 C 99 % 1013,4 hPa 0,0 l/m 0 min 0 min 0 W/m 3,2 km/h (1 Bft) 100,00 %
13.09.2023 04:26 18,8 C 18,3 C 14,4 C 99 % 1013,4 hPa 0,0 l/m 0 min 2 min 0 W/m 6,4 km/h (2 Bft) 100,00 %
13.09.2023 04:28 18,8 C 18,3 C 14,4 C 99 % 1013,4 hPa 0,0 l/m 0 min 2 min 0 W/m 6,4 km/h (2 Bft) 100,00 %
13.09.2023 04:30 18,9 C 17,8 C 14,4 C 99 % 1013,4 hPa 0,2 l/m 0 min 2 min 0 W/m 6,4 km/h (2 Bft) 100,00 %
13.09.2023 04:32 18,9 C 17,8 C 14,4 C 99 % 1013,5 hPa 0,0 l/m 0 min 0 min 0 W/m 6,4 km/h (2 Bft) 97,87 %
13.09.2023 04:34 18,9 C 17,8 C 14,4 C 99 % 1013,5 hPa 0,0 l/m 0 min 0 min 0 W/m 6,4 km/h (2 Bft) 100,00 %
13.09.2023 04:36 18,9 C 18,3 C 14,4 C 99 % 1013,5 hPa 0,0 l/m 0 min 0 min 0 W/m 3,2 km/h (1 Bft) 100,00 %
13.09.2023 04:38 18,9 C 18,3 C 14,4 C 99 % 1013,5 hPa 0,0 l/m 0 min 0 min 0 W/m 6,4 km/h (2 Bft) 97,83 %
13.09.2023 04:40 18,9 C 18,3 C 14,4 C 99 % 1013,5 hPa 0,0 l/m 0 min 0 min 0 W/m 3,2 km/h (1 Bft) 97,87 %
13.09.2023 04:42 18,9 C 17,8 C 14,4 C 99 % 1013,5 hPa 0,0 l/m 0 min 0 min 0 W/m 6,4 km/h (2 Bft) 97,87 %
13.09.2023 04:44 18,8 C 17,8 C 14,4 C 99 % 1013,5 hPa 0,0 l/m 0 min 0 min 0 W/m 6,4 km/h (2 Bft) 97,87 %
13.09.2023 04:46 18,8 C 17,8 C 14,4 C 99 % 1013,6 hPa 0,0 l/m 0 min 0 min 0 W/m 9,7 km/h (2 Bft) 93,62 %
13.09.2023 04:48 18,8 C 17,8 C 14,4 C 99 % 1013,6 hPa 0,0 l/m 0 min 0 min 0 W/m 12,9 km/h (3 Bft) 95,74 %
13.09.2023 04:50 18,8 C 17,8 C 14,4 C 99 % 1013,6 hPa 0,0 l/m 0 min 0 min 0 W/m 6,4 km/h (2 Bft) 95,65 %
13.09.2023 04:52 18,8 C 17,8 C 14,4 C 99 % 1013,5 hPa 0,0 l/m 0 min 0 min 0 W/m 6,4 km/h (2 Bft) 95,74 %
13.09.2023 04:54 18,8 C 17,8 C 14,4 C 99 % 1013,5 hPa 0,0 l/m 0 min 0 min 0 W/m 6,4 km/h (2 Bft) 93,62 %
13.09.2023 04:56 18,8 C 17,8 C 14,4 C 99 % 1013,5 hPa 0,0 l/m 0 min 0 min 0 W/m 3,2 km/h (1 Bft) 96,15 %
13.09.2023 04:58 18,8 C 17,8 C 14,4 C 99 % 1013,5 hPa 0,0 l/m 0 min 0 min 0 W/m 6,4 km/h (2 Bft) 93,62 %
13.09.2023 05:00 18,8 C 17,8 C 14,4 C 99 % 1013,5 hPa 0,0 l/m 0 min 0 min 0 W/m 6,4 km/h (2 Bft) 95,74 %
13.09.2023 05:02 18,8 C 17,8 C 14,4 C 99 % 1013,4 hPa 0,0 l/m 0 min 0 min 0 W/m 6,4 km/h (2 Bft) 95,74 %
13.09.2023 05:04 18,8 C 17,8 C 14,4 C 99 % 1013,4 hPa 0,0 l/m 0 min 0 min 0 W/m 3,2 km/h (1 Bft) 95,65 %
13.09.2023 05:06 18,8 C 17,8 C 14,4 C 99 % 1013,4 hPa 0,0 l/m 0 min 0 min 0 W/m 6,4 km/h (2 Bft) 95,74 %
13.09.2023 05:08 18,7 C 17,8 C 14,4 C 99 % 1013,4 hPa 0,0 l/m 0 min 0 min 0 W/m 6,4 km/h (2 Bft) 95,74 %
13.09.2023 05:10 18,7 C 17,8 C 14,4 C 99 % 1013,4 hPa 0,0 l/m 0 min 0 min 0 W/m 6,4 km/h (2 Bft) 93,62 %
13.09.2023 05:12 18,7 C 17,8 C 14,4 C 99 % 1013,3 hPa 0,0 l/m 0 min 0 min 0 W/m 3,2 km/h (1 Bft) 97,87 %
13.09.2023 05:14 18,7 C 17,8 C 14,4 C 99 % 1013,4 hPa 0,0 l/m 0 min 0 min 0 W/m 6,4 km/h (2 Bft) 97,87 %
13.09.2023 05:16 18,7 C 17,8 C 14,4 C 99 % 1013,5 hPa 0,0 l/m 0 min 0 min 0 W/m 6,4 km/h (2 Bft) 93,62 %
13.09.2023 05:18 18,7 C 17,8 C 14,4 C 99 % 1013,4 hPa 0,0 l/m 0 min 0 min 0 W/m 6,4 km/h (2 Bft) 97,83 %
13.09.2023 05:20 18,6 C 17,8 C 14,4 C 99 % 1013,5 hPa 0,0 l/m 0 min 0 min 0 W/m 3,2 km/h (1 Bft) 97,87 %
13.09.2023 05:22 18,6 C 17,8 C 14,4 C 99 % 1013,5 hPa 0,0 l/m 0 min 0 min 0 W/m 3,2 km/h (1 Bft) 97,87 %
13.09.2023 05:24 18,6 C 17,8 C 14,4 C 99 % 1013,6 hPa 0,0 l/m 0 min 0 min 0 W/m 12,9 km/h (3 Bft) 95,74 %
13.09.2023 05:26 18,6 C 17,8 C 14,4 C 99 % 1013,6 hPa 0,0 l/m 0 min 0 min 0 W/m 9,7 km/h (2 Bft) 95,74 %
13.09.2023 05:28 18,6 C 17,8 C 14,4 C 99 % 1013,5 hPa 0,0 l/m 0 min 0 min 0 W/m 6,4 km/h (2 Bft) 95,74 %
13.09.2023 05:30 18,6 C 17,8 C 14,4 C 99 % 1013,5 hPa 0,0 l/m 0 min 0 min 0 W/m 12,9 km/h (3 Bft) 97,87 %
13.09.2023 05:32 18,6 C 17,8 C 14,4 C 99 % 1013,5 hPa 0,0 l/m 0 min 0 min 0 W/m 6,4 km/h (2 Bft) 97,83 %
13.09.2023 05:34 18,6 C 17,8 C 14,4 C 99 % 1013,6 hPa 0,0 l/m 0 min 0 min 0 W/m 9,7 km/h (2 Bft) 97,87 %
13.09.2023 05:36 18,5 C 17,8 C 14,4 C 99 % 1013,5 hPa 0,0 l/m 0 min 0 min 0 W/m 3,2 km/h (1 Bft) 97,87 %
13.09.2023 05:38 18,5 C 17,8 C 14,4 C 99 % 1013,5 hPa 0,0 l/m 0 min 0 min 0 W/m 6,4 km/h (2 Bft) 100,00 %
13.09.2023 05:40 18,5 C 17,8 C 14,4 C 99 % 1013,6 hPa 0,0 l/m 0 min 0 min 0 W/m 6,4 km/h (2 Bft) 100,00 %
13.09.2023 05:42 18,4 C 17,8 C 14,4 C 99 % 1013,6 hPa 0,0 l/m 0 min 0 min 0 W/m 6,4 km/h (2 Bft) 100,00 %
13.09.2023 05:44 18,4 C 17,8 C 14,4 C 99 % 1013,6 hPa 0,0 l/m 0 min 0 min 0 W/m 6,4 km/h (2 Bft) 97,83 %
13.09.2023 05:46 18,4 C 17,8 C 14,4 C 99 % 1013,7 hPa 0,0 l/m 0 min 0 min 0 W/m 6,4 km/h (2 Bft) 100,00 %
13.09.2023 05:48 18,4 C 17,8 C 13,9 C 99 % 1013,7 hPa 0,0 l/m 0 min 0 min 0 W/m 6,4 km/h (2 Bft) 100,00 %
13.09.2023 05:50 18,4 C 17,8 C 14,4 C 99 % 1013,7 hPa 0,0 l/m 0 min 0 min 0 W/m 12,9 km/h (3 Bft) 97,87 %
13.09.2023 05:52 18,4 C 17,8 C 14,4 C 99 % 1013,7 hPa 0,0 l/m 0 min 0 min 0 W/m 9,7 km/h (2 Bft) 100,00 %
13.09.2023 05:54 18,4 C 17,8 C 14,4 C 99 % 1013,7 hPa 0,0 l/m 0 min 0 min 0 W/m 6,4 km/h (2 Bft) 97,87 %
13.09.2023 05:56 18,4 C 17,8 C 14,4 C 99 % 1013,6 hPa 0,0 l/m 0 min 0 min 0 W/m 12,9 km/h (3 Bft) 100,00 %
13.09.2023 05:58 18,4 C 17,8 C 14,4 C 99 % 1013,6 hPa 0,0 l/m 0 min 0 min 0 W/m 9,7 km/h (2 Bft) 100,00 %
13.09.2023 06:00 18,4 C 17,8 C 14,4 C 99 % 1013,6 hPa 0,0 l/m 0 min 0 min 0 W/m 6,4 km/h (2 Bft) 100,00 %
13.09.2023 06:02 18,4 C 17,8 C 14,4 C 99 % 1013,6 hPa 0,0 l/m 0 min 0 min 0 W/m 6,4 km/h (2 Bft) 100,00 %
13.09.2023 06:04 18,4 C 17,8 C 14,4 C 99 % 1013,7 hPa 0,0 l/m 0 min 0 min 0 W/m 6,4 km/h (2 Bft) 97,62 %
13.09.2023 06:08 18,4 C 17,8 C 14,4 C 99 % 1013,7 hPa 0,0 l/m 0 min 0 min 0 W/m 6,4 km/h (2 Bft) 100,00 %
13.09.2023 06:10 18,4 C 17,8 C 14,4 C 99 % 1013,7 hPa 0,0 l/m 0 min 0 min 0 W/m 6,4 km/h (2 Bft) 100,00 %
13.09.2023 06:12 18,4 C 17,8 C 14,4 C 99 % 1013,7 hPa 0,0 l/m 0 min 0 min 0 W/m 3,2 km/h (1 Bft) 100,00 %
13.09.2023 06:16 18,4 C 17,8 C 14,4 C 99 % 1013,7 hPa 0,0 l/m 0 min 0 min 0 W/m 6,4 km/h (2 Bft) 96,81 %
13.09.2023 06:18 18,4 C 17,8 C 14,4 C 99 % 1013,8 hPa 0,0 l/m 0 min 0 min 0 W/m 6,4 km/h (2 Bft) 93,62 %
13.09.2023 06:20 18,4 C 17,8 C 14,4 C 99 % 1013,8 hPa 0,0 l/m 0 min 0 min 0 W/m 6,4 km/h (2 Bft) 95,74 %
13.09.2023 06:22 18,4 C 17,8 C 14,4 C 99 % 1013,9 hPa 0,0 l/m 0 min 0 min 0 W/m 9,7 km/h (2 Bft) 97,87 %
13.09.2023 06:24 18,3 C 17,8 C 13,9 C 99 % 1013,9 hPa 0,0 l/m 0 min 0 min 0 W/m 12,9 km/h (3 Bft) 97,83 %
13.09.2023 06:26 18,3 C 17,8 C 13,9 C 99 % 1013,9 hPa 0,0 l/m 0 min 0 min 0 W/m 12,9 km/h (3 Bft) 97,87 %
13.09.2023 06:28 18,2 C 17,8 C 13,9 C 99 % 1013,9 hPa 0,0 l/m 0 min 0 min 0 W/m 12,9 km/h (3 Bft) 97,87 %
13.09.2023 06:30 18,2 C 17,8 C 13,9 C 99 % 1013,9 hPa 0,0 l/m 0 min 0 min 0 W/m 12,9 km/h (3 Bft) 95,74 %
13.09.2023 06:32 18,2 C 17,8 C 13,9 C 99 % 1013,9 hPa 0,0 l/m 0 min 0 min 0 W/m 9,7 km/h (2 Bft) 95,74 %
13.09.2023 06:34 18,2 C 17,8 C 13,9 C 99 % 1014,0 hPa 0,0 l/m 0 min 0 min 0 W/m 6,4 km/h (2 Bft) 95,74 %
13.09.2023 06:36 18,2 C 17,8 C 13,9 C 99 % 1014,0 hPa 0,0 l/m 0 min 0 min 0 W/m 9,7 km/h (2 Bft) 95,65 %
13.09.2023 06:38 18,2 C 17,8 C 13,9 C 99 % 1014,0 hPa 0,0 l/m 0 min 0 min 0 W/m 6,4 km/h (2 Bft) 95,74 %
13.09.2023 06:40 18,2 C 17,8 C 13,9 C 99 % 1013,9 hPa 0,0 l/m 0 min 0 min 0 W/m 3,2 km/h (1 Bft) 93,62 %
13.09.2023 06:42 18,2 C 17,8 C 13,9 C 99 % 1014,0 hPa 0,0 l/m 0 min 0 min 0 W/m 3,2 km/h (1 Bft) 95,74 %
13.09.2023 06:44 18,2 C 17,8 C 13,9 C 99 % 1014,0 hPa 0,0 l/m 0 min 0 min 0 W/m 6,4 km/h (2 Bft) 95,74 %
13.09.2023 06:46 18,2 C 17,8 C 13,9 C 99 % 1013,9 hPa 0,0 l/m 0 min 0 min 0 W/m 3,2 km/h (1 Bft) 95,74 %
13.09.2023 06:50 18,2 C 17,8 C 14,4 C 99 % 1013,9 hPa 0,0 l/m 0 min 0 min 0 W/m 3,2 km/h (1 Bft) 100,00 %
13.09.2023 06:55 18,2 C 17,8 C 14,4 C 99 % 1013,9 hPa 0,0 l/m 0 min 0 min 0 W/m 6,4 km/h (2 Bft) 96,15 %
13.09.2023 06:58 18,2 C 17,8 C 14,4 C 99 % 1014,0 hPa 0,0 l/m 0 min 0 min 0 W/m 6,4 km/h (2 Bft) 95,71 %
13.09.2023 07:00 18,2 C 17,8 C 14,4 C 99 % 1014,0 hPa 0,0 l/m 0 min 0 min 0 W/m 3,2 km/h (1 Bft) 100,00 %
13.09.2023 07:02 18,3 C 17,8 C 14,4 C 99 % 1014,1 hPa 0,0 l/m 0 min 0 min 0 W/m 3,2 km/h (1 Bft) 100,00 %
13.09.2023 07:04 18,3 C 17,8 C 13,9 C 99 % 1014,1 hPa 0,0 l/m 0 min 0 min 0 W/m 6,4 km/h (2 Bft) 100,00 %
13.09.2023 07:06 18,3 C 17,8 C 13,9 C 99 % 1014,1 hPa 0,0 l/m 0 min 0 min 0 W/m 12,9 km/h (3 Bft) 100,00 %
13.09.2023 07:08 18,3 C 17,8 C 13,9 C 99 % 1014,1 hPa 0,0 l/m 0 min 0 min 0 W/m 16,1 km/h (3 Bft) 100,00 %
13.09.2023 07:10 18,3 C 17,8 C 13,9 C 99 % 1014,2 hPa 0,0 l/m 0 min 0 min 0 W/m 12,9 km/h (3 Bft) 100,00 %
13.09.2023 07:12 18,3 C 17,8 C 13,9 C 99 % 1014,2 hPa 0,0 l/m 0 min 0 min 0 W/m 6,4 km/h (2 Bft) 100,00 %
13.09.2023 07:14 18,2 C 17,8 C 13,9 C 99 % 1014,3 hPa 0,0 l/m 0 min 0 min 0 W/m 12,9 km/h (3 Bft) 95,74 %
13.09.2023 07:16 18,2 C 17,8 C 13,9 C 99 % 1014,2 hPa 0,0 l/m 0 min 0 min 0 W/m 6,4 km/h (2 Bft) 97,87 %
13.09.2023 07:18 18,2 C 17,8 C 13,9 C 98 % 1014,2 hPa 0,0 l/m 0 min 0 min 0 W/m 6,4 km/h (2 Bft) 100,00 %
13.09.2023 07:20 18,2 C 17,8 C 13,9 C 98 % 1014,2 hPa 0,0 l/m 0 min 0 min 0 W/m 6,4 km/h (2 Bft) 100,00 %
13.09.2023 07:22 18,2 C 17,8 C 13,9 C 98 % 1014,3 hPa 0,0 l/m 0 min 0 min 0 W/m 6,4 km/h (2 Bft) 100,00 %
13.09.2023 07:24 18,2 C 17,8 C 13,9 C 98 % 1014,3 hPa 0,0 l/m 0 min 0 min 0 W/m 6,4 km/h (2 Bft) 100,00 %
13.09.2023 07:26 18,2 C 17,8 C 13,9 C 98 % 1014,3 hPa 0,0 l/m 0 min 0 min 0 W/m 9,7 km/h (2 Bft) 97,87 %
13.09.2023 07:28 18,2 C 17,8 C 13,9 C 98 % 1014,3 hPa 0,0 l/m 0 min 0 min 0 W/m 6,4 km/h (2 Bft) 100,00 %
13.09.2023 07:30 18,2 C 17,8 C 13,9 C 98 % 1014,4 hPa 0,0 l/m 0 min 0 min 0 W/m 6,4 km/h (2 Bft) 97,87 %
13.09.2023 07:32 18,2 C 17,8 C 13,9 C 98 % 1014,4 hPa 0,0 l/m 0 min 0 min 0 W/m 6,4 km/h (2 Bft) 100,00 %
13.09.2023 07:34 18,2 C 17,8 C 13,9 C 98 % 1014,4 hPa 0,0 l/m 0 min 0 min 0 W/m 9,7 km/h (2 Bft) 100,00 %
13.09.2023 07:36 18,2 C 17,8 C 13,9 C 98 % 1014,4 hPa 0,0 l/m 0 min 0 min 0 W/m 6,4 km/h (2 Bft) 100,00 %
13.09.2023 07:38 18,2 C 17,8 C 13,9 C 98 % 1014,5 hPa 0,0 l/m 0 min 0 min 0 W/m 6,4 km/h (2 Bft) 100,00 %
13.09.2023 07:40 18,2 C 17,8 C 13,9 C 98 % 1014,5 hPa 0,0 l/m 0 min 0 min 0 W/m 12,9 km/h (3 Bft) 100,00 %
13.09.2023 07:42 18,2 C 17,8 C 13,9 C 98 % 1014,5 hPa 0,0 l/m 0 min 0 min 2 W/m 9,7 km/h (2 Bft) 97,87 %
13.09.2023 07:44 18,2 C 17,8 C 13,9 C 98 % 1014,5 hPa 0,0 l/m 0 min 0 min 5 W/m 6,4 km/h (2 Bft) 95,74 %
13.09.2023 07:46 18,1 C 17,8 C 13,9 C 98 % 1014,6 hPa 0,0 l/m 0 min 0 min 6 W/m 12,9 km/h (3 Bft) 95,74 %
13.09.2023 07:48 18,1 C 17,8 C 13,9 C 98 % 1014,6 hPa 0,0 l/m 0 min 0 min 7 W/m 12,9 km/h (3 Bft) 97,87 %
13.09.2023 07:50 18,1 C 17,8 C 13,9 C 98 % 1014,6 hPa 0,0 l/m 0 min 0 min 7 W/m 12,9 km/h (3 Bft) 97,83 %
13.09.2023 07:52 18,1 C 17,8 C 13,9 C 98 % 1014,7 hPa 0,0 l/m 0 min 0 min 7 W/m 12,9 km/h (3 Bft) 95,74 %
13.09.2023 07:54 18,1 C 17,8 C 13,9 C 98 % 1014,6 hPa 0,0 l/m 0 min 0 min 9 W/m 9,7 km/h (2 Bft) 95,74 %
13.09.2023 07:56 18,1 C 17,8 C 13,9 C 98 % 1014,7 hPa 0,0 l/m 0 min 0 min 9 W/m 16,1 km/h (3 Bft) 95,74 %
13.09.2023 07:58 18,1 C 17,8 C 13,9 C 98 % 1014,7 hPa 0,0 l/m 0 min 0 min 8 W/m 12,9 km/h (3 Bft) 97,87 %
13.09.2023 08:00 18,1 C 17,8 C 13,9 C 98 % 1014,7 hPa 0,0 l/m 0 min 0 min 11 W/m 12,9 km/h (3 Bft) 95,74 %
13.09.2023 08:02 18,1 C 17,8 C 13,9 C 98 % 1014,7 hPa 0,0 l/m 0 min 0 min 14 W/m 6,4 km/h (2 Bft) 97,87 %
13.09.2023 08:04 18,1 C 17,8 C 13,9 C 98 % 1014,7 hPa 0,0 l/m 0 min 0 min 15 W/m 6,4 km/h (2 Bft) 96,00 %
13.09.2023 08:06 18,1 C 17,2 C 13,9 C 98 % 1014,8 hPa 0,0 l/m 0 min 0 min 14 W/m 12,9 km/h (3 Bft) 97,87 %
13.09.2023 08:08 18,1 C 17,8 C 13,9 C 98 % 1014,8 hPa 0,0 l/m 0 min 0 min 16 W/m 12,9 km/h (3 Bft) 97,14 %
13.09.2023 08:10 18,1 C 17,8 C 13,9 C 98 % 1014,8 hPa 0,0 l/m 0 min 0 min 18 W/m 9,7 km/h (2 Bft) 98,11 %
13.09.2023 08:12 18,1 C 17,8 C 13,9 C 98 % 1014,8 hPa 0,0 l/m 0 min 0 min 22 W/m 9,7 km/h (2 Bft) 97,87 %
13.09.2023 08:14 18,1 C 17,8 C 13,9 C 98 % 1014,8 hPa 0,0 l/m 0 min 0 min 25 W/m 6,4 km/h (2 Bft) 97,87 %
13.09.2023 08:16 18,1 C 17,8 C 13,9 C 98 % 1014,8 hPa 0,0 l/m 0 min 0 min 26 W/m 9,7 km/h (2 Bft) 97,87 %
13.09.2023 08:18 18,1 C 17,8 C 13,9 C 98 % 1014,8 hPa 0,0 l/m 0 min 0 min 26 W/m 12,9 km/h (3 Bft) 97,87 %
13.09.2023 08:20 18,1 C 17,8 C 13,9 C 98 % 1014,8 hPa 0,0 l/m 0 min 0 min 28 W/m 12,9 km/h (3 Bft) 95,65 %
13.09.2023 08:22 18,2 C 17,8 C 13,9 C 98 % 1014,8 hPa 0,0 l/m 0 min 0 min 34 W/m 6,4 km/h (2 Bft) 93,62 %
13.09.2023 08:24 18,2 C 17,8 C 13,9 C 98 % 1014,9 hPa 0,0 l/m 0 min 0 min 34 W/m 6,4 km/h (2 Bft) 95,74 %
13.09.2023 08:26 18,2 C 17,8 C 13,9 C 98 % 1014,9 hPa 0,0 l/m 0 min 0 min 36 W/m 9,7 km/h (2 Bft) 91,49 %
13.09.2023 08:28 18,2 C 17,8 C 13,9 C 98 % 1014,9 hPa 0,0 l/m 0 min 0 min 38 W/m 3,2 km/h (1 Bft) 95,74 %
13.09.2023 08:30 18,2 C 17,8 C 13,9 C 98 % 1014,9 hPa 0,0 l/m 0 min 0 min 39 W/m 12,9 km/h (3 Bft) 95,74 %
13.09.2023 08:32 18,2 C 17,8 C 13,9 C 98 % 1014,9 hPa 0,0 l/m 0 min 0 min 44 W/m 12,9 km/h (3 Bft) 95,65 %
13.09.2023 08:34 18,2 C 17,8 C 13,9 C 98 % 1014,9 hPa 0,0 l/m 0 min 0 min 48 W/m 9,7 km/h (2 Bft) 95,74 %
13.09.2023 08:36 18,3 C 17,8 C 13,9 C 98 % 1014,9 hPa 0,0 l/m 0 min 0 min 51 W/m 12,9 km/h (3 Bft) 97,87 %
13.09.2023 08:38 18,3 C 17,8 C 13,9 C 98 % 1014,9 hPa 0,0 l/m 0 min 0 min 58 W/m 6,4 km/h (2 Bft) 97,87 %
13.09.2023 08:40 18,3 C 17,8 C 13,9 C 98 % 1014,9 hPa 0,0 l/m 0 min 0 min 76 W/m 6,4 km/h (2 Bft) 95,74 %
13.09.2023 08:42 18,3 C 17,8 C 13,9 C 98 % 1014,9 hPa 0,0 l/m 0 min 0 min 74 W/m 6,4 km/h (2 Bft) 95,74 %
13.09.2023 08:44 18,3 C 17,8 C 13,9 C 98 % 1014,9 hPa 0,0 l/m 0 min 0 min 74 W/m 12,9 km/h (3 Bft) 97,87 %
13.09.2023 08:46 18,3 C 18,3 C 13,9 C 98 % 1014,9 hPa 0,0 l/m 0 min 0 min 78 W/m 12,9 km/h (3 Bft) 97,83 %
13.09.2023 08:48 18,3 C 18,3 C 13,9 C 98 % 1014,9 hPa 0,0 l/m 0 min 0 min 81 W/m 12,9 km/h (3 Bft) 97,87 %
13.09.2023 08:50 18,3 C 17,8 C 13,9 C 98 % 1014,9 hPa 0,0 l/m 0 min 0 min 75 W/m 12,9 km/h (3 Bft) 95,74 %
13.09.2023 08:52 18,3 C 17,8 C 13,9 C 98 % 1014,9 hPa 0,0 l/m 0 min 0 min 65 W/m 9,7 km/h (2 Bft) 95,74 %
13.09.2023 08:54 18,3 C 17,8 C 13,9 C 98 % 1014,9 hPa 0,0 l/m 0 min 0 min 59 W/m 6,4 km/h (2 Bft) 100,00 %
13.09.2023 08:56 18,3 C 17,8 C 13,9 C 98 % 1014,9 hPa 0,0 l/m 0 min 0 min 74 W/m 12,9 km/h (3 Bft) 100,00 %
13.09.2023 08:58 18,3 C 18,3 C 13,9 C 98 % 1015,0 hPa 0,0 l/m 0 min 0 min 82 W/m 12,9 km/h (3 Bft) 100,00 %
13.09.2023 09:00 18,3 C 17,8 C 13,9 C 98 % 1015,1 hPa 0,0 l/m 0 min 0 min 66 W/m 19,3 km/h (3 Bft) 97,83 %
13.09.2023 09:02 18,3 C 18,3 C 13,9 C 97 % 1015,1 hPa 0,0 l/m 0 min 0 min 87 W/m 6,4 km/h (2 Bft) 97,87 %
13.09.2023 09:04 18,3 C 18,3 C 13,9 C 97 % 1015,2 hPa 0,0 l/m 0 min 0 min 94 W/m 19,3 km/h (3 Bft) 97,73 %
13.09.2023 09:06 18,3 C 18,3 C 13,9 C 97 % 1015,2 hPa 0,0 l/m 0 min 0 min 90 W/m 12,9 km/h (3 Bft) 97,87 %
13.09.2023 09:08 18,3 C 18,3 C 13,9 C 97 % 1015,2 hPa 0,0 l/m 0 min 0 min 99 W/m 12,9 km/h (3 Bft) 97,87 %
13.09.2023 09:10 18,3 C 18,3 C 13,9 C 97 % 1015,2 hPa 0,0 l/m 0 min 0 min 96 W/m 16,1 km/h (3 Bft) 97,87 %
13.09.2023 09:12 18,3 C 18,3 C 13,9 C 97 % 1015,2 hPa 0,0 l/m 0 min 0 min 104 W/m 12,9 km/h (3 Bft) 93,62 %
13.09.2023 09:14 18,3 C 18,3 C 13,9 C 97 % 1015,2 hPa 0,0 l/m 0 min 0 min 108 W/m 16,1 km/h (3 Bft) 97,83 %
13.09.2023 09:16 18,3 C 18,3 C 13,9 C 97 % 1015,2 hPa 0,0 l/m 0 min 0 min 91 W/m 12,9 km/h (3 Bft) 97,87 %
13.09.2023 09:18 18,3 C 18,3 C 13,9 C 97 % 1015,2 hPa 0,0 l/m 0 min 0 min 84 W/m 6,4 km/h (2 Bft) 97,87 %
13.09.2023 09:20 18,3 C 18,3 C 13,9 C 97 % 1015,2 hPa 0,0 l/m 0 min 0 min 78 W/m 6,4 km/h (2 Bft) 95,74 %
13.09.2023 09:22 18,3 C 18,3 C 13,9 C 97 % 1015,3 hPa 0,0 l/m 0 min 0 min 79 W/m 9,7 km/h (2 Bft) 95,74 %
13.09.2023 09:24 18,3 C 18,3 C 13,9 C 97 % 1015,3 hPa 0,0 l/m 0 min 0 min 83 W/m 12,9 km/h (3 Bft) 97,87 %
13.09.2023 09:26 18,4 C 18,3 C 13,9 C 97 % 1015,3 hPa 0,0 l/m 0 min 0 min 78 W/m 6,4 km/h (2 Bft) 97,87 %
13.09.2023 09:28 18,4 C 18,3 C 13,9 C 97 % 1015,3 hPa 0,0 l/m 0 min 0 min 74 W/m 16,1 km/h (3 Bft) 97,83 %
13.09.2023 09:30 18,4 C 18,3 C 13,9 C 97 % 1015,2 hPa 0,0 l/m 0 min 0 min 77 W/m 12,9 km/h (3 Bft) 97,87 %
13.09.2023 09:32 18,5 C 18,3 C 13,9 C 96 % 1015,2 hPa 0,0 l/m 0 min 0 min 74 W/m 6,4 km/h (2 Bft) 97,87 %
13.09.2023 09:34 18,5 C 18,3 C 13,9 C 97 % 1015,2 hPa 0,0 l/m 0 min 0 min 75 W/m 3,2 km/h (1 Bft) 95,74 %
13.09.2023 09:36 18,6 C 18,9 C 13,9 C 97 % 1015,2 hPa 0,0 l/m 0 min 0 min 80 W/m 9,7 km/h (2 Bft) 97,87 %
13.09.2023 09:38 18,6 C 18,9 C 13,9 C 96 % 1015,3 hPa 0,0 l/m 0 min 0 min 77 W/m 9,7 km/h (2 Bft) 97,87 %
13.09.2023 09:40 18,7 C 18,9 C 13,9 C 96 % 1015,3 hPa 0,0 l/m 0 min 0 min 77 W/m 6,4 km/h (2 Bft) 94,23 %
13.09.2023 09:42 18,7 C 18,9 C 13,9 C 96 % 1015,3 hPa 0,0 l/m 0 min 0 min 89 W/m 9,7 km/h (2 Bft) 97,87 %
13.09.2023 09:44 18,7 C 18,9 C 13,9 C 96 % 1015,4 hPa 0,0 l/m 0 min 0 min 97 W/m 6,4 km/h (2 Bft) 95,74 %
13.09.2023 09:46 18,8 C 18,9 C 13,9 C 96 % 1015,3 hPa 0,0 l/m 0 min 0 min 100 W/m 9,7 km/h (2 Bft) 95,74 %
13.09.2023 09:48 18,8 C 18,9 C 13,9 C 96 % 1015,3 hPa 0,0 l/m 0 min 0 min 99 W/m 9,7 km/h (2 Bft) 100,00 %
13.09.2023 09:50 18,8 C 18,9 C 13,9 C 95 % 1015,4 hPa 0,0 l/m 0 min 0 min 113 W/m 12,9 km/h (3 Bft) 100,00 %
13.09.2023 09:52 18,9 C 18,9 C 13,9 C 95 % 1015,4 hPa 0,0 l/m 0 min 0 min 125 W/m 12,9 km/h (3 Bft) 100,00 %
13.09.2023 09:54 18,9 C 18,9 C 13,9 C 95 % 1015,5 hPa 0,0 l/m 0 min 0 min 161 W/m 16,1 km/h (3 Bft) 100,00 %
13.09.2023 09:56 18,9 C 19,4 C 14,4 C 94 % 1015,5 hPa 0,0 l/m 2 min 0 min 210 W/m 16,1 km/h (3 Bft) 100,00 %
13.09.2023 09:58 19,1 C 19,4 C 14,4 C 94 % 1015,5 hPa 0,0 l/m 0 min 0 min 143 W/m 16,1 km/h (3 Bft) 100,00 %
13.09.2023 10:00 19,1 C 19,4 C 14,4 C 94 % 1015,6 hPa 0,0 l/m 0 min 0 min 197 W/m 16,1 km/h (3 Bft) 100,00 %
13.09.2023 10:02 19,1 C 18,9 C 14,4 C 94 % 1015,7 hPa 0,0 l/m 0 min 0 min 106 W/m 6,4 km/h (2 Bft) 97,87 %
13.09.2023 10:04 19,1 C 18,9 C 15,0 C 94 % 1015,7 hPa 0,0 l/m 0 min 0 min 83 W/m 16,1 km/h (3 Bft) 98,00 %
13.09.2023 10:06 19,1 C 18,9 C 15,0 C 93 % 1015,8 hPa 0,0 l/m 0 min 0 min 64 W/m 19,3 km/h (3 Bft) 97,87 %
13.09.2023 10:08 19,1 C 18,9 C 15,0 C 93 % 1015,7 hPa 0,0 l/m 0 min 0 min 58 W/m 22,5 km/h (4 Bft) 97,87 %
13.09.2023 10:10 19,1 C 18,9 C 15,0 C 93 % 1015,7 hPa 0,0 l/m 0 min 0 min 75 W/m 9,7 km/h (2 Bft) 100,00 %
13.09.2023 10:12 19,1 C 18,9 C 15,0 C 93 % 1015,8 hPa 0,0 l/m 0 min 0 min 87 W/m 6,4 km/h (2 Bft) 100,00 %
13.09.2023 10:14 19,1 C 18,9 C 15,6 C 93 % 1015,9 hPa 0,0 l/m 0 min 0 min 85 W/m 16,1 km/h (3 Bft) 95,74 %
13.09.2023 10:16 19,1 C 18,9 C 15,6 C 93 % 1015,9 hPa 0,0 l/m 0 min 0 min 105 W/m 12,9 km/h (3 Bft) 97,92 %
13.09.2023 10:18 19,1 C 18,9 C 15,6 C 93 % 1015,9 hPa 0,0 l/m 0 min 0 min 122 W/m 16,1 km/h (3 Bft) 97,87 %
13.09.2023 10:20 19,1 C 18,9 C 15,6 C 93 % 1016,0 hPa 0,0 l/m 0 min 0 min 125 W/m 9,7 km/h (2 Bft) 97,87 %
13.09.2023 10:22 19,1 C 18,9 C 15,6 C 92 % 1016,0 hPa 0,0 l/m 0 min 0 min 126 W/m 19,3 km/h (3 Bft) 95,74 %
13.09.2023 10:24 19,1 C 18,9 C 15,6 C 92 % 1016,0 hPa 0,0 l/m 0 min 0 min 111 W/m 12,9 km/h (3 Bft) 97,87 %
13.09.2023 10:26 19,1 C 18,9 C 15,6 C 92 % 1016,1 hPa 0,0 l/m 0 min 0 min 122 W/m 9,7 km/h (2 Bft) 97,83 %
13.09.2023 10:28 19,1 C 18,9 C 15,6 C 92 % 1016,1 hPa 0,0 l/m 0 min 0 min 122 W/m 9,7 km/h (2 Bft) 100,00 %
13.09.2023 10:30 19,1 C 18,9 C 15,6 C 92 % 1016,1 hPa 0,0 l/m 0 min 0 min 115 W/m 16,1 km/h (3 Bft) 97,83 %
13.09.2023 10:32 19,1 C 18,9 C 15,6 C 92 % 1016,1 hPa 0,0 l/m 0 min 0 min 103 W/m 12,9 km/h (3 Bft) 96,61 %
13.09.2023 10:34 19,1 C 18,9 C 15,6 C 92 % 1016,1 hPa 0,0 l/m 0 min 0 min 88 W/m 16,1 km/h (3 Bft) 97,87 %
13.09.2023 10:36 19,1 C 18,9 C 15,6 C 92 % 1016,1 hPa 0,0 l/m 0 min 0 min 81 W/m 9,7 km/h (2 Bft) 94,29 %
13.09.2023 10:38 19,1 C 18,9 C 15,6 C 92 % 1016,1 hPa 0,0 l/m 0 min 0 min 82 W/m 3,2 km/h (1 Bft) 94,92 %
13.09.2023 10:40 19,2 C 18,9 C 15,6 C 92 % 1016,1 hPa 0,0 l/m 0 min 0 min 83 W/m 12,9 km/h (3 Bft) 97,14 %
13.09.2023 10:42 19,2 C 18,9 C 15,6 C 92 % 1016,2 hPa 0,0 l/m 0 min 0 min 94 W/m 3,2 km/h (1 Bft) 93,62 %
13.09.2023 10:44 19,2 C 18,9 C 15,6 C 92 % 1016,2 hPa 0,0 l/m 0 min 0 min 110 W/m 12,9 km/h (3 Bft) 95,65 %
13.09.2023 10:46 19,2 C 18,9 C 15,6 C 92 % 1016,2 hPa 0,0 l/m 0 min 0 min 100 W/m 6,4 km/h (2 Bft) 97,87 %
13.09.2023 10:48 19,2 C 18,9 C 15,6 C 92 % 1016,3 hPa 0,0 l/m 0 min 0 min 92 W/m 6,4 km/h (2 Bft) 97,87 %
13.09.2023 10:51 19,2 C 18,9 C 15,6 C 92 % 1016,3 hPa 0,0 l/m 0 min 0 min 82 W/m 6,4 km/h (2 Bft) 97,56 %
13.09.2023 10:52 19,2 C 18,9 C 15,6 C 92 % 1016,4 hPa 0,0 l/m 0 min 0 min 82 W/m 12,9 km/h (3 Bft) 100,00 %
13.09.2023 10:56 19,2 C 18,9 C 15,6 C 92 % 1016,4 hPa 0,0 l/m 0 min 0 min 106 W/m 3,2 km/h (1 Bft) 97,14 %
13.09.2023 10:58 19,2 C 18,9 C 15,6 C 92 % 1016,4 hPa 0,0 l/m 0 min 0 min 96 W/m 3,2 km/h (1 Bft) 97,87 %
13.09.2023 11:00 19,2 C 18,9 C 15,6 C 92 % 1016,4 hPa 0,0 l/m 0 min 0 min 95 W/m 9,7 km/h (2 Bft) 97,30 %
13.09.2023 11:02 19,2 C 18,9 C 15,6 C 92 % 1016,4 hPa 0,0 l/m 0 min 0 min 113 W/m 9,7 km/h (2 Bft) 97,87 %
13.09.2023 11:04 19,2 C 18,9 C 15,6 C 92 % 1016,5 hPa 0,0 l/m 0 min 0 min 180 W/m 12,9 km/h (3 Bft) 97,73 %
13.09.2023 11:06 19,2 C 19,4 C 15,6 C 92 % 1016,4 hPa 0,0 l/m 0 min 0 min 220 W/m 16,1 km/h (3 Bft) 97,87 %
13.09.2023 11:08 19,3 C 19,4 C 16,1 C 92 % 1016,4 hPa 0,0 l/m 0 min 0 min 208 W/m 9,7 km/h (2 Bft) 97,87 %
13.09.2023 11:10 19,3 C 19,4 C 16,1 C 92 % 1016,4 hPa 0,0 l/m 0 min 0 min 224 W/m 6,4 km/h (2 Bft) 97,87 %
13.09.2023 11:12 19,3 C 20,0 C 16,1 C 92 % 1016,4 hPa 0,0 l/m 0 min 0 min 212 W/m 9,7 km/h (2 Bft) 97,87 %
13.09.2023 11:14 19,4 C 20,0 C 16,1 C 92 % 1016,4 hPa 0,0 l/m 0 min 0 min 179 W/m 6,4 km/h (2 Bft) 97,87 %
13.09.2023 11:16 19,5 C 20,6 C 16,1 C 92 % 1016,5 hPa 0,0 l/m 0 min 0 min 280 W/m 9,7 km/h (2 Bft) 95,74 %
13.09.2023 11:18 19,6 C 20,6 C 16,7 C 92 % 1016,6 hPa 0,0 l/m 0 min 0 min 245 W/m 12,9 km/h (3 Bft) 97,83 %
13.09.2023 11:20 19,6 C 20,6 C 16,7 C 92 % 1016,6 hPa 0,0 l/m 0 min 0 min 249 W/m 12,9 km/h (3 Bft) 100,00 %
13.09.2023 11:22 19,7 C 20,6 C 16,7 C 92 % 1016,5 hPa 0,0 l/m 2 min 0 min 298 W/m 9,7 km/h (2 Bft) 97,87 %
13.09.2023 11:24 19,7 C 20,0 C 16,7 C 92 % 1016,6 hPa 0,0 l/m 0 min 0 min 282 W/m 12,9 km/h (3 Bft) 97,87 %
13.09.2023 11:26 19,8 C 20,0 C 16,7 C 92 % 1016,6 hPa 0,0 l/m 2 min 0 min 309 W/m 12,9 km/h (3 Bft) 100,00 %
13.09.2023 11:28 19,8 C 20,6 C 16,7 C 91 % 1016,6 hPa 0,0 l/m 0 min 0 min 261 W/m 12,9 km/h (3 Bft) 100,00 %
13.09.2023 11:30 19,9 C 20,6 C 16,7 C 92 % 1016,6 hPa 0,0 l/m 0 min 0 min 234 W/m 3,2 km/h (1 Bft) 100,00 %
13.09.2023 11:32 19,9 C 20,0 C 16,7 C 91 % 1016,6 hPa 0,0 l/m 0 min 0 min 218 W/m 12,9 km/h (3 Bft) 100,00 %
13.09.2023 11:34 19,9 C 20,0 C 16,7 C 91 % 1016,6 hPa 0,0 l/m 0 min 0 min 232 W/m 12,9 km/h (3 Bft) 95,74 %
13.09.2023 11:36 19,9 C 20,6 C 16,7 C 91 % 1016,6 hPa 0,0 l/m 0 min 0 min 263 W/m 3,2 km/h (1 Bft) 100,00 %
13.09.2023 11:38 19,9 C 20,6 C 16,7 C 91 % 1016,6 hPa 0,0 l/m 0 min 0 min 281 W/m 12,9 km/h (3 Bft) 97,87 %
13.09.2023 11:40 20,1 C 21,1 C 17,2 C 91 % 1016,6 hPa 0,0 l/m 2 min 0 min 459 W/m 6,4 km/h (2 Bft) 100,00 %
13.09.2023 11:42 20,2 C 21,7 C 17,8 C 91 % 1016,5 hPa 0,0 l/m 2 min 0 min 585 W/m 6,4 km/h (2 Bft) 100,00 %
13.09.2023 11:44 20,3 C 21,7 C 17,8 C 91 % 1016,6 hPa 0,0 l/m 2 min 0 min 334 W/m 9,7 km/h (2 Bft) 97,87 %
13.09.2023 11:46 20,4 C 21,7 C 17,8 C 90 % 1016,6 hPa 0,0 l/m 2 min 0 min 302 W/m 12,9 km/h (3 Bft) 97,87 %
13.09.2023 11:48 20,5 C 22,2 C 17,8 C 90 % 1016,6 hPa 0,0 l/m 2 min 0 min 360 W/m 12,9 km/h (3 Bft) 100,00 %
13.09.2023 11:50 20,6 C 22,8 C 17,8 C 90 % 1016,6 hPa 0,0 l/m 2 min 0 min 433 W/m 12,9 km/h (3 Bft) 100,00 %
13.09.2023 11:52 20,6 C 22,2 C 17,8 C 89 % 1016,6 hPa 0,0 l/m 2 min 0 min 466 W/m 12,9 km/h (3 Bft) 100,00 %
13.09.2023 11:54 20,7 C 22,2 C 17,8 C 89 % 1016,6 hPa 0,0 l/m 2 min 0 min 406 W/m 12,9 km/h (3 Bft) 100,00 %
13.09.2023 11:56 20,7 C 21,7 C 17,8 C 89 % 1016,7 hPa 0,0 l/m 0 min 0 min 303 W/m 9,7 km/h (2 Bft) 97,87 %
13.09.2023 11:58 20,7 C 21,1 C 17,2 C 88 % 1016,6 hPa 0,0 l/m 0 min 0 min 261 W/m 12,9 km/h (3 Bft) 100,00 %
13.09.2023 12:00 20,7 C 21,1 C 17,2 C 88 % 1016,6 hPa 0,0 l/m 0 min 0 min 278 W/m 9,7 km/h (2 Bft) 97,87 %
13.09.2023 12:02 20,7 C 20,6 C 17,2 C 88 % 1016,6 hPa 0,0 l/m 2 min 0 min 336 W/m 12,9 km/h (3 Bft) 97,83 %
13.09.2023 12:04 20,7 C 21,1 C 17,2 C 88 % 1016,6 hPa 0,0 l/m 2 min 0 min 316 W/m 3,2 km/h (1 Bft) 98,00 %
13.09.2023 12:08 20,8 C 21,1 C 17,2 C 88 % 1016,7 hPa 0,0 l/m 0 min 0 min 178 W/m 9,7 km/h (2 Bft) 96,88 %
13.09.2023 12:10 20,8 C 20,6 C 17,2 C 88 % 1016,7 hPa 0,0 l/m 0 min 0 min 74 W/m 6,4 km/h (2 Bft) 97,87 %
13.09.2023 12:12 20,8 C 20,0 C 17,2 C 88 % 1016,8 hPa 0,0 l/m 0 min 0 min 55 W/m 6,4 km/h (2 Bft) 97,87 %
13.09.2023 12:16 20,6 C 19,4 C 16,1 C 87 % 1016,9 hPa 0,0 l/m 0 min 0 min 35 W/m 19,3 km/h (3 Bft) 95,70 %
13.09.2023 12:18 20,4 C 18,9 C 15,6 C 87 % 1016,9 hPa 0,0 l/m 0 min 0 min 27 W/m 16,1 km/h (3 Bft) 95,74 %
13.09.2023 12:20 20,2 C 18,3 C 15,0 C 87 % 1017,0 hPa 0,2 l/m 0 min 2 min 31 W/m 19,3 km/h (3 Bft) 93,62 %
13.09.2023 12:22 20,1 C 17,8 C 14,4 C 87 % 1017,0 hPa 0,0 l/m 0 min 2 min 39 W/m 19,3 km/h (3 Bft) 95,74 %
13.09.2023 12:24 19,8 C 17,8 C 14,4 C 88 % 1017,0 hPa 0,0 l/m 0 min 2 min 46 W/m 12,9 km/h (3 Bft) 95,74 %
13.09.2023 12:26 19,7 C 17,8 C 13,9 C 89 % 1017,1 hPa 0,0 l/m 0 min 2 min 41 W/m 9,7 km/h (2 Bft) 93,62 %
13.09.2023 12:28 19,4 C 17,2 C 13,9 C 89 % 1017,1 hPa 0,0 l/m 0 min 0 min 38 W/m 3,2 km/h (1 Bft) 95,74 %
13.09.2023 12:30 19,2 C 17,2 C 13,9 C 90 % 1017,1 hPa 0,0 l/m 0 min 2 min 47 W/m 12,9 km/h (3 Bft) 95,65 %
13.09.2023 12:32 19,0 C 17,2 C 13,3 C 90 % 1017,1 hPa 0,0 l/m 0 min 2 min 67 W/m 6,4 km/h (2 Bft) 95,74 %
13.09.2023 12:34 18,8 C 17,2 C 13,3 C 91 % 1017,1 hPa 0,2 l/m 0 min 0 min 89 W/m 6,4 km/h (2 Bft) 91,49 %
13.09.2023 12:36 18,7 C 17,2 C 13,3 C 91 % 1017,1 hPa 0,0 l/m 0 min 0 min 109 W/m 9,7 km/h (2 Bft) 95,74 %
13.09.2023 12:38 18,4 C 16,7 C 12,8 C 91 % 1017,3 hPa 0,0 l/m 0 min 0 min 102 W/m 12,9 km/h (3 Bft) 95,74 %
13.09.2023 12:40 18,2 C 16,7 C 12,8 C 91 % 1017,3 hPa 0,0 l/m 0 min 0 min 100 W/m 9,7 km/h (2 Bft) 97,87 %
13.09.2023 12:42 17,9 C 16,7 C 12,8 C 92 % 1017,4 hPa 0,0 l/m 0 min 0 min 90 W/m 12,9 km/h (3 Bft) 95,74 %
13.09.2023 12:44 17,7 C 16,7 C 12,8 C 92 % 1017,4 hPa 0,0 l/m 0 min 0 min 84 W/m 16,1 km/h (3 Bft) 93,48 %
13.09.2023 12:46 17,6 C 16,7 C 12,8 C 92 % 1017,4 hPa 0,0 l/m 0 min 0 min 78 W/m 6,4 km/h (2 Bft) 93,62 %
13.09.2023 12:48 17,4 C 16,7 C 12,8 C 93 % 1017,4 hPa 0,0 l/m 0 min 0 min 76 W/m 9,7 km/h (2 Bft) 97,87 %
13.09.2023 12:50 17,4 C 16,7 C 12,8 C 93 % 1017,4 hPa 0,0 l/m 0 min 0 min 72 W/m 9,7 km/h (2 Bft) 97,87 %
13.09.2023 12:52 17,3 C 16,7 C 12,8 C 93 % 1017,5 hPa 0,0 l/m 0 min 0 min 72 W/m 9,7 km/h (2 Bft) 97,87 %
13.09.2023 12:54 17,1 C 16,7 C 12,8 C 94 % 1017,5 hPa 0,0 l/m 0 min 0 min 81 W/m 16,1 km/h (3 Bft) 97,87 %
13.09.2023 12:56 17,1 C 16,7 C 12,8 C 94 % 1017,5 hPa 0,0 l/m 0 min 0 min 99 W/m 12,9 km/h (3 Bft) 97,87 %
13.09.2023 12:58 17,0 C 16,7 C 12,8 C 94 % 1017,5 hPa 0,0 l/m 0 min 0 min 121 W/m 12,9 km/h (3 Bft) 97,83 %
13.09.2023 13:00 17,0 C 16,7 C 12,8 C 94 % 1017,5 hPa 0,0 l/m 0 min 0 min 149 W/m 6,4 km/h (2 Bft) 100,00 %
13.09.2023 13:02 17,0 C 17,2 C 13,3 C 94 % 1017,7 hPa 0,0 l/m 0 min 0 min 185 W/m 6,4 km/h (2 Bft) 97,87 %
13.09.2023 13:04 17,1 C 17,2 C 13,3 C 95 % 1017,7 hPa 0,0 l/m 0 min 0 min 191 W/m 16,1 km/h (3 Bft) 100,00 %
13.09.2023 13:06 17,1 C 17,2 C 13,3 C 95 % 1017,8 hPa 0,0 l/m 0 min 0 min 176 W/m 16,1 km/h (3 Bft) 100,00 %
13.09.2023 13:08 17,2 C 17,2 C 13,3 C 95 % 1017,8 hPa 0,0 l/m 0 min 0 min 187 W/m 9,7 km/h (2 Bft) 100,00 %
13.09.2023 13:10 17,2 C 17,8 C 13,9 C 95 % 1017,8 hPa 0,0 l/m 0 min 0 min 171 W/m 3,2 km/h (1 Bft) 100,00 %
13.09.2023 13:12 17,3 C 17,2 C 13,9 C 96 % 1017,8 hPa 0,0 l/m 0 min 0 min 137 W/m 16,1 km/h (3 Bft) 100,00 %
13.09.2023 13:14 17,3 C 17,2 C 13,9 C 96 % 1017,8 hPa 0,0 l/m 0 min 0 min 112 W/m 9,7 km/h (2 Bft) 100,00 %
13.09.2023 13:16 17,2 C 17,2 C 13,9 C 95 % 1017,8 hPa 0,0 l/m 0 min 0 min 113 W/m 12,9 km/h (3 Bft) 97,87 %
13.09.2023 13:18 17,3 C 17,2 C 13,9 C 95 % 1017,8 hPa 0,0 l/m 0 min 0 min 115 W/m 6,4 km/h (2 Bft) 97,87 %
13.09.2023 13:20 17,3 C 17,8 C 13,9 C 96 % 1017,9 hPa 0,0 l/m 0 min 0 min 131 W/m 12,9 km/h (3 Bft) 97,87 %
13.09.2023 13:22 17,3 C 17,2 C 13,9 C 95 % 1017,9 hPa 0,0 l/m 0 min 0 min 151 W/m 16,1 km/h (3 Bft) 97,92 %
13.09.2023 13:24 17,2 C 17,2 C 13,9 C 95 % 1017,9 hPa 0,0 l/m 0 min 0 min 179 W/m 12,9 km/h (3 Bft) 97,14 %
13.09.2023 13:26 17,3 C 17,8 C 13,9 C 95 % 1018,0 hPa 0,0 l/m 0 min 0 min 199 W/m 6,4 km/h (2 Bft) 97,87 %
13.09.2023 13:28 17,3 C 17,8 C 13,9 C 95 % 1018,0 hPa 0,0 l/m 0 min 0 min 219 W/m 9,7 km/h (2 Bft) 97,87 %
13.09.2023 13:30 17,3 C 18,3 C 14,4 C 95 % 1018,0 hPa 0,0 l/m 0 min 0 min 234 W/m 9,7 km/h (2 Bft) 97,83 %
13.09.2023 13:32 17,4 C 18,3 C 14,4 C 95 % 1018,0 hPa 0,0 l/m 0 min 0 min 240 W/m 9,7 km/h (2 Bft) 97,87 %
13.09.2023 13:34 17,3 C 18,3 C 14,4 C 95 % 1018,1 hPa 0,0 l/m 0 min 0 min 240 W/m 12,9 km/h (3 Bft) 97,87 %
13.09.2023 13:36 17,4 C 18,3 C 14,4 C 94 % 1018,1 hPa 0,0 l/m 0 min 0 min 250 W/m 12,9 km/h (3 Bft) 93,62 %
13.09.2023 13:38 17,5 C 18,3 C 14,4 C 94 % 1018,0 hPa 0,0 l/m 0 min 0 min 251 W/m 6,4 km/h (2 Bft) 97,87 %
13.09.2023 13:40 17,6 C 18,3 C 14,4 C 94 % 1018,1 hPa 0,0 l/m 0 min 0 min 251 W/m 6,4 km/h (2 Bft) 97,87 %
13.09.2023 13:42 17,7 C 18,9 C 14,4 C 94 % 1018,1 hPa 0,0 l/m 0 min 0 min 241 W/m 6,4 km/h (2 Bft) 97,87 %
13.09.2023 13:44 17,7 C 18,9 C 15,0 C 94 % 1018,0 hPa 0,0 l/m 0 min 0 min 235 W/m 3,2 km/h (1 Bft) 95,74 %
13.09.2023 13:46 17,8 C 18,9 C 15,0 C 94 % 1018,1 hPa 0,0 l/m 0 min 0 min 210 W/m 9,7 km/h (2 Bft) 97,83 %
13.09.2023 13:48 17,8 C 18,3 C 15,0 C 93 % 1018,1 hPa 0,0 l/m 0 min 0 min 181 W/m 12,9 km/h (3 Bft) 97,87 %
13.09.2023 13:50 17,8 C 18,3 C 15,0 C 93 % 1018,1 hPa 0,0 l/m 0 min 0 min 176 W/m 6,4 km/h (2 Bft) 97,87 %
13.09.2023 13:52 17,8 C 18,9 C 15,0 C 93 % 1018,1 hPa 0,0 l/m 0 min 0 min 205 W/m 6,4 km/h (2 Bft) 97,87 %
13.09.2023 13:54 17,9 C 18,9 C 15,0 C 93 % 1018,2 hPa 0,0 l/m 2 min 0 min 379 W/m 12,9 km/h (3 Bft) 95,74 %
13.09.2023 13:56 18,0 C 18,9 C 15,0 C 92 % 1018,2 hPa 0,0 l/m 2 min 0 min 483 W/m 6,4 km/h (2 Bft) 97,87 %
13.09.2023 13:58 18,2 C 19,4 C 15,0 C 92 % 1018,2 hPa 0,0 l/m 2 min 0 min 623 W/m 16,1 km/h (3 Bft) 97,87 %
13.09.2023 14:00 18,3 C 20,6 C 15,0 C 92 % 1018,3 hPa 0,0 l/m 2 min 0 min 683 W/m 12,9 km/h (3 Bft) 97,83 %
13.09.2023 14:02 18,4 C 20,6 C 15,6 C 91 % 1018,3 hPa 0,0 l/m 2 min 0 min 863 W/m 6,4 km/h (2 Bft) 93,62 %
13.09.2023 14:04 18,6 C 20,0 C 15,6 C 90 % 1018,5 hPa 0,0 l/m 2 min 0 min 520 W/m 9,7 km/h (2 Bft) 98,04 %
13.09.2023 14:06 18,6 C 18,9 C 15,0 C 89 % 1018,5 hPa 0,0 l/m 0 min 0 min 125 W/m 3,2 km/h (1 Bft) 97,87 %
13.09.2023 14:08 18,6 C 18,9 C 15,0 C 89 % 1018,6 hPa 0,0 l/m 0 min 0 min 132 W/m 12,9 km/h (3 Bft) 97,87 %
13.09.2023 14:10 18,6 C 18,9 C 15,0 C 89 % 1018,6 hPa 0,0 l/m 0 min 0 min 195 W/m 9,7 km/h (2 Bft) 97,87 %
13.09.2023 14:12 18,6 C 18,9 C 15,0 C 89 % 1018,6 hPa 0,0 l/m 0 min 0 min 276 W/m 16,1 km/h (3 Bft) 97,83 %
13.09.2023 14:14 18,6 C 18,9 C 15,0 C 89 % 1018,7 hPa 0,0 l/m 0 min 0 min 244 W/m 6,4 km/h (2 Bft) 91,49 %
13.09.2023 14:16 18,6 C 18,9 C 15,0 C 89 % 1018,7 hPa 0,0 l/m 0 min 0 min 179 W/m 16,1 km/h (3 Bft) 97,87 %
13.09.2023 14:18 18,6 C 18,9 C 15,0 C 88 % 1018,8 hPa 0,0 l/m 0 min 0 min 174 W/m 6,4 km/h (2 Bft) 97,87 %
13.09.2023 14:20 18,6 C 18,9 C 15,0 C 88 % 1018,9 hPa 0,0 l/m 0 min 0 min 142 W/m 12,9 km/h (3 Bft) 97,87 %
13.09.2023 14:22 18,6 C 18,3 C 15,0 C 88 % 1018,9 hPa 0,0 l/m 0 min 0 min 124 W/m 16,1 km/h (3 Bft) 97,87 %
13.09.2023 14:24 18,6 C 18,3 C 15,0 C 88 % 1018,9 hPa 0,0 l/m 0 min 0 min 119 W/m 9,7 km/h (2 Bft) 97,87 %
13.09.2023 14:26 18,6 C 18,3 C 15,0 C 88 % 1018,9 hPa 0,0 l/m 0 min 0 min 116 W/m 16,1 km/h (3 Bft) 97,87 %
13.09.2023 14:28 18,6 C 18,3 C 15,0 C 88 % 1018,9 hPa 0,0 l/m 0 min 0 min 136 W/m 16,1 km/h (3 Bft) 97,83 %
13.09.2023 14:30 18,5 C 18,3 C 15,0 C 88 % 1019,0 hPa 0,0 l/m 0 min 0 min 130 W/m 9,7 km/h (2 Bft) 97,87 %
13.09.2023 14:32 18,5 C 18,3 C 15,0 C 88 % 1018,9 hPa 0,0 l/m 0 min 0 min 136 W/m 12,9 km/h (3 Bft) 97,87 %
13.09.2023 14:34 18,4 C 18,3 C 14,4 C 88 % 1019,0 hPa 0,0 l/m 0 min 0 min 131 W/m 12,9 km/h (3 Bft) 97,87 %
13.09.2023 14:36 18,4 C 18,3 C 14,4 C 88 % 1019,0 hPa 0,0 l/m 0 min 0 min 116 W/m 12,9 km/h (3 Bft) 95,74 %
13.09.2023 14:38 18,4 C 18,3 C 14,4 C 88 % 1019,0 hPa 0,0 l/m 0 min 0 min 130 W/m 12,9 km/h (3 Bft) 97,87 %
13.09.2023 14:40 18,4 C 18,3 C 14,4 C 88 % 1019,1 hPa 0,0 l/m 0 min 0 min 113 W/m 16,1 km/h (3 Bft) 97,87 %
13.09.2023 14:42 18,4 C 18,3 C 14,4 C 88 % 1019,0 hPa 0,0 l/m 0 min 0 min 83 W/m 6,4 km/h (2 Bft) 100,00 %
13.09.2023 14:44 18,4 C 17,8 C 14,4 C 88 % 1019,0 hPa 0,0 l/m 0 min 0 min 102 W/m 6,4 km/h (2 Bft) 100,00 %
13.09.2023 14:46 18,4 C 18,3 C 14,4 C 88 % 1019,1 hPa 0,0 l/m 0 min 0 min 110 W/m 6,4 km/h (2 Bft) 100,00 %
13.09.2023 14:48 18,3 C 18,3 C 14,4 C 88 % 1019,1 hPa 0,0 l/m 0 min 0 min 134 W/m 19,3 km/h (3 Bft) 100,00 %
13.09.2023 14:50 18,3 C 18,3 C 14,4 C 88 % 1019,1 hPa 0,0 l/m 0 min 0 min 146 W/m 12,9 km/h (3 Bft) 97,87 %
13.09.2023 14:52 18,3 C 18,3 C 14,4 C 88 % 1019,1 hPa 0,0 l/m 0 min 0 min 162 W/m 25,7 km/h (4 Bft) 95,74 %
13.09.2023 14:54 18,4 C 18,3 C 14,4 C 88 % 1019,1 hPa 0,0 l/m 0 min 0 min 156 W/m 9,7 km/h (2 Bft) 100,00 %
13.09.2023 14:56 18,4 C 18,3 C 15,0 C 88 % 1019,2 hPa 0,0 l/m 0 min 0 min 169 W/m 9,7 km/h (2 Bft) 100,00 %
13.09.2023 14:58 18,4 C 18,3 C 15,0 C 87 % 1019,3 hPa 0,0 l/m 0 min 0 min 177 W/m 9,7 km/h (2 Bft) 100,00 %
13.09.2023 15:00 18,4 C 18,9 C 15,0 C 87 % 1019,2 hPa 0,0 l/m 0 min 0 min 166 W/m 12,9 km/h (3 Bft) 97,87 %
13.09.2023 15:02 18,4 C 18,3 C 15,0 C 87 % 1019,3 hPa 0,0 l/m 0 min 0 min 157 W/m 12,9 km/h (3 Bft) 97,87 %
13.09.2023 15:04 18,4 C 18,3 C 15,0 C 87 % 1019,3 hPa 0,0 l/m 0 min 0 min 162 W/m 6,4 km/h (2 Bft) 100,00 %
13.09.2023 15:06 18,4 C 18,3 C 15,0 C 86 % 1019,3 hPa 0,0 l/m 0 min 0 min 170 W/m 12,9 km/h (3 Bft) 97,87 %
13.09.2023 15:08 18,5 C 18,9 C 15,0 C 86 % 1019,3 hPa 0,0 l/m 0 min 0 min 170 W/m 9,7 km/h (2 Bft) 97,87 %
13.09.2023 15:10 18,5 C 18,9 C 15,0 C 86 % 1019,3 hPa 0,0 l/m 0 min 0 min 185 W/m 6,4 km/h (2 Bft) 95,74 %
13.09.2023 15:12 18,6 C 18,9 C 15,0 C 86 % 1019,3 hPa 0,0 l/m 0 min 0 min 220 W/m 6,4 km/h (2 Bft) 97,87 %
13.09.2023 15:14 18,6 C 18,9 C 15,0 C 86 % 1019,3 hPa 0,0 l/m 0 min 0 min 244 W/m 19,3 km/h (3 Bft) 97,83 %
13.09.2023 15:16 18,7 C 19,4 C 15,6 C 85 % 1019,3 hPa 0,0 l/m 0 min 0 min 259 W/m 6,4 km/h (2 Bft) 97,87 %
13.09.2023 15:18 18,7 C 19,4 C 15,6 C 85 % 1019,3 hPa 0,0 l/m 0 min 0 min 233 W/m 19,3 km/h (3 Bft) 97,87 %
13.09.2023 15:20 18,7 C 18,9 C 15,6 C 84 % 1019,4 hPa 0,0 l/m 0 min 0 min 196 W/m 9,7 km/h (2 Bft) 95,74 %
13.09.2023 15:22 18,7 C 18,9 C 15,0 C 84 % 1019,4 hPa 0,0 l/m 0 min 0 min 184 W/m 6,4 km/h (2 Bft) 97,87 %
13.09.2023 15:24 18,8 C 18,9 C 15,0 C 84 % 1019,4 hPa 0,0 l/m 0 min 0 min 203 W/m 12,9 km/h (3 Bft) 97,87 %
13.09.2023 15:26 18,8 C 19,4 C 15,6 C 84 % 1019,4 hPa 0,0 l/m 0 min 0 min 237 W/m 16,1 km/h (3 Bft) 97,87 %
13.09.2023 15:28 18,8 C 19,4 C 15,6 C 84 % 1019,5 hPa 0,0 l/m 0 min 0 min 253 W/m 12,9 km/h (3 Bft) 97,87 %
13.09.2023 15:30 18,9 C 19,4 C 15,6 C 84 % 1019,5 hPa 0,0 l/m 0 min 0 min 271 W/m 12,9 km/h (3 Bft) 95,65 %
13.09.2023 15:32 18,9 C 19,4 C 15,6 C 84 % 1019,5 hPa 0,0 l/m 2 min 0 min 299 W/m 16,1 km/h (3 Bft) 97,92 %
13.09.2023 15:34 19,0 C 19,4 C 15,6 C 84 % 1019,5 hPa 0,0 l/m 0 min 0 min 272 W/m 6,4 km/h (2 Bft) 97,14 %
13.09.2023 15:36 19,1 C 20,0 C 15,6 C 83 % 1019,5 hPa 0,0 l/m 2 min 0 min 322 W/m 9,7 km/h (2 Bft) 98,18 %
13.09.2023 15:38 19,1 C 19,4 C 15,6 C 82 % 1019,5 hPa 0,0 l/m 2 min 0 min 360 W/m 19,3 km/h (3 Bft) 95,74 %
13.09.2023 15:40 19,2 C 20,0 C 15,6 C 82 % 1019,5 hPa 0,0 l/m 2 min 0 min 293 W/m 12,9 km/h (3 Bft) 97,87 %
13.09.2023 15:42 19,2 C 20,0 C 15,6 C 82 % 1019,5 hPa 0,0 l/m 2 min 0 min 331 W/m 6,4 km/h (2 Bft) 97,87 %
13.09.2023 15:44 19,3 C 20,0 C 15,6 C 82 % 1019,5 hPa 0,0 l/m 2 min 0 min 331 W/m 16,1 km/h (3 Bft) 95,74 %
13.09.2023 15:46 19,3 C 20,0 C 15,6 C 82 % 1019,5 hPa 0,0 l/m 0 min 0 min 261 W/m 16,1 km/h (3 Bft) 97,83 %
13.09.2023 15:48 19,3 C 20,0 C 15,6 C 81 % 1019,5 hPa 0,0 l/m 0 min 0 min 274 W/m 12,9 km/h (3 Bft) 97,87 %
13.09.2023 15:50 19,4 C 20,0 C 15,6 C 81 % 1019,5 hPa 0,0 l/m 2 min 0 min 278 W/m 12,9 km/h (3 Bft) 97,87 %
13.09.2023 15:52 19,4 C 20,0 C 15,6 C 81 % 1019,5 hPa 0,0 l/m 2 min 0 min 447 W/m 25,7 km/h (4 Bft) 91,49 %
13.09.2023 15:54 19,5 C 20,0 C 15,6 C 81 % 1019,5 hPa 0,0 l/m 0 min 0 min 266 W/m 9,7 km/h (2 Bft) 97,87 %
13.09.2023 15:56 19,4 C 19,4 C 15,6 C 80 % 1019,5 hPa 0,0 l/m 0 min 0 min 183 W/m 19,3 km/h (3 Bft) 97,87 %
13.09.2023 15:58 19,5 C 19,4 C 15,6 C 80 % 1019,5 hPa 0,0 l/m 0 min 0 min 183 W/m 12,9 km/h (3 Bft) 95,74 %
13.09.2023 16:00 19,5 C 20,0 C 15,6 C 80 % 1019,6 hPa 0,0 l/m 2 min 0 min 500 W/m 9,7 km/h (2 Bft) 97,83 %
13.09.2023 16:02 19,6 C 20,0 C 15,6 C 80 % 1019,5 hPa 0,0 l/m 0 min 0 min 213 W/m 9,7 km/h (2 Bft) 97,87 %
13.09.2023 16:04 19,5 C 19,4 C 15,6 C 79 % 1019,5 hPa 0,0 l/m 0 min 0 min 167 W/m 16,1 km/h (3 Bft) 95,45 %
13.09.2023 16:08 19,4 C 19,4 C 15,6 C 79 % 1019,6 hPa 0,0 l/m 0 min 0 min 251 W/m 19,3 km/h (3 Bft) 96,00 %
13.09.2023 16:10 19,4 C 19,4 C 15,6 C 79 % 1019,6 hPa 0,0 l/m 2 min 0 min 264 W/m 12,9 km/h (3 Bft) 95,74 %
13.09.2023 16:12 19,4 C 19,4 C 15,6 C 79 % 1019,6 hPa 0,0 l/m 2 min 0 min 312 W/m 12,9 km/h (3 Bft) 95,65 %
13.09.2023 16:14 19,4 C 19,4 C 15,6 C 79 % 1019,6 hPa 0,0 l/m 0 min 0 min 183 W/m 9,7 km/h (2 Bft) 95,74 %
13.09.2023 16:16 19,4 C 19,4 C 15,6 C 80 % 1019,6 hPa 0,0 l/m 0 min 0 min 151 W/m 12,9 km/h (3 Bft) 94,00 %
13.09.2023 16:18 19,4 C 19,4 C 15,6 C 80 % 1019,6 hPa 0,0 l/m 0 min 0 min 135 W/m 19,3 km/h (3 Bft) 94,74 %
13.09.2023 16:20 19,4 C 18,9 C 15,0 C 80 % 1019,7 hPa 0,0 l/m 0 min 0 min 100 W/m 12,9 km/h (3 Bft) 93,62 %
13.09.2023 16:22 19,3 C 18,9 C 15,0 C 80 % 1019,7 hPa 0,0 l/m 0 min 0 min 121 W/m 19,3 km/h (3 Bft) 95,74 %
13.09.2023 16:24 19,3 C 18,9 C 15,0 C 80 % 1019,7 hPa 0,0 l/m 0 min 0 min 155 W/m 12,9 km/h (3 Bft) 93,62 %
13.09.2023 16:26 19,2 C 18,9 C 15,0 C 80 % 1019,7 hPa 0,0 l/m 0 min 0 min 191 W/m 16,1 km/h (3 Bft) 95,74 %
13.09.2023 16:28 19,2 C 18,9 C 15,0 C 80 % 1019,8 hPa 0,0 l/m 0 min 0 min 212 W/m 19,3 km/h (3 Bft) 95,65 %
13.09.2023 16:30 19,2 C 19,4 C 15,6 C 81 % 1019,8 hPa 0,0 l/m 0 min 0 min 212 W/m 12,9 km/h (3 Bft) 93,62 %
13.09.2023 16:32 19,2 C 18,9 C 15,0 C 81 % 1019,8 hPa 0,0 l/m 0 min 0 min 142 W/m 16,1 km/h (3 Bft) 95,74 %
13.09.2023 16:34 19,1 C 18,9 C 15,0 C 81 % 1019,9 hPa 0,0 l/m 0 min 0 min 126 W/m 12,9 km/h (3 Bft) 95,74 %
13.09.2023 16:36 19,0 C 18,9 C 15,0 C 81 % 1019,9 hPa 0,0 l/m 0 min 0 min 115 W/m 9,7 km/h (2 Bft) 95,74 %
13.09.2023 16:38 18,9 C 18,9 C 15,0 C 81 % 1019,9 hPa 0,0 l/m 0 min 0 min 119 W/m 6,4 km/h (2 Bft) 95,74 %
13.09.2023 16:40 18,9 C 18,3 C 15,0 C 82 % 1019,8 hPa 0,0 l/m 0 min 0 min 125 W/m 12,9 km/h (3 Bft) 95,74 %
13.09.2023 16:42 18,8 C 18,3 C 15,0 C 82 % 1019,8 hPa 0,0 l/m 0 min 0 min 135 W/m 16,1 km/h (3 Bft) 97,83 %
13.09.2023 16:44 18,8 C 18,3 C 15,0 C 82 % 1019,8 hPa 0,0 l/m 0 min 0 min 147 W/m 6,4 km/h (2 Bft) 97,87 %
13.09.2023 16:46 18,8 C 18,9 C 15,0 C 82 % 1019,9 hPa 0,0 l/m 0 min 0 min 152 W/m 6,4 km/h (2 Bft) 97,87 %
13.09.2023 16:48 18,8 C 18,9 C 15,0 C 82 % 1019,9 hPa 0,0 l/m 0 min 0 min 147 W/m 9,7 km/h (2 Bft) 100,00 %
13.09.2023 16:50 18,8 C 18,9 C 15,0 C 82 % 1019,9 hPa 0,0 l/m 0 min 0 min 145 W/m 19,3 km/h (3 Bft) 100,00 %
13.09.2023 16:52 18,8 C 18,9 C 15,0 C 82 % 1019,9 hPa 0,0 l/m 0 min 0 min 151 W/m 19,3 km/h (3 Bft) 100,00 %
13.09.2023 16:54 18,8 C 18,9 C 15,0 C 82 % 1019,8 hPa 0,0 l/m 0 min 0 min 153 W/m 9,7 km/h (2 Bft) 97,87 %
13.09.2023 16:56 18,8 C 18,9 C 15,0 C 82 % 1019,9 hPa 0,0 l/m 0 min 0 min 151 W/m 12,9 km/h (3 Bft) 95,74 %
13.09.2023 16:58 18,8 C 18,9 C 15,0 C 82 % 1019,8 hPa 0,0 l/m 0 min 0 min 149 W/m 9,7 km/h (2 Bft) 100,00 %
13.09.2023 17:00 18,8 C 18,9 C 15,0 C 81 % 1019,9 hPa 0,0 l/m 0 min 0 min 143 W/m 19,3 km/h (3 Bft) 100,00 %
13.09.2023 17:02 18,8 C 18,9 C 15,0 C 81 % 1019,9 hPa 0,0 l/m 0 min 0 min 131 W/m 6,4 km/h (2 Bft) 97,87 %
13.09.2023 17:04 18,8 C 18,9 C 15,0 C 81 % 1019,9 hPa 0,0 l/m 0 min 0 min 125 W/m 16,1 km/h (3 Bft) 100,00 %
13.09.2023 17:06 18,8 C 18,9 C 15,0 C 82 % 1020,0 hPa 0,0 l/m 0 min 0 min 123 W/m 12,9 km/h (3 Bft) 100,00 %
13.09.2023 17:08 18,7 C 18,3 C 15,0 C 81 % 1020,0 hPa 0,0 l/m 0 min 0 min 126 W/m 19,3 km/h (3 Bft) 100,00 %
13.09.2023 17:10 18,7 C 18,3 C 15,0 C 80 % 1020,0 hPa 0,0 l/m 0 min 0 min 135 W/m 12,9 km/h (3 Bft) 97,87 %
13.09.2023 17:12 18,7 C 18,3 C 15,0 C 81 % 1020,1 hPa 0,0 l/m 0 min 0 min 149 W/m 9,7 km/h (2 Bft) 100,00 %
13.09.2023 17:14 18,7 C 18,3 C 15,0 C 81 % 1020,1 hPa 0,0 l/m 0 min 0 min 160 W/m 19,3 km/h (3 Bft) 100,00 %
13.09.2023 17:16 18,7 C 18,9 C 15,0 C 81 % 1020,1 hPa 0,0 l/m 0 min 0 min 165 W/m 16,1 km/h (3 Bft) 100,00 %
13.09.2023 17:18 18,7 C 18,9 C 15,0 C 81 % 1020,1 hPa 0,0 l/m 0 min 0 min 169 W/m 9,7 km/h (2 Bft) 100,00 %
13.09.2023 17:20 18,7 C 18,9 C 15,0 C 81 % 1020,1 hPa 0,0 l/m 0 min 0 min 178 W/m 6,4 km/h (2 Bft) 100,00 %
13.09.2023 17:22 18,7 C 18,9 C 15,0 C 81 % 1020,1 hPa 0,0 l/m 0 min 0 min 183 W/m 12,9 km/h (3 Bft) 100,00 %
13.09.2023 17:24 18,8 C 18,9 C 15,0 C 81 % 1020,1 hPa 0,0 l/m 2 min 0 min 189 W/m 16,1 km/h (3 Bft) 100,00 %
13.09.2023 17:26 18,8 C 18,9 C 15,0 C 80 % 1020,1 hPa 0,0 l/m 2 min 0 min 185 W/m 6,4 km/h (2 Bft) 100,00 %
13.09.2023 17:28 18,8 C 18,9 C 15,0 C 80 % 1020,0 hPa 0,0 l/m 0 min 0 min 175 W/m 6,4 km/h (2 Bft) 100,00 %
13.09.2023 17:30 18,9 C 18,9 C 15,0 C 80 % 1020,0 hPa 0,0 l/m 0 min 0 min 164 W/m 3,2 km/h (1 Bft) 100,00 %
13.09.2023 17:32 18,9 C 18,9 C 15,0 C 80 % 1020,0 hPa 0,0 l/m 0 min 0 min 155 W/m 12,9 km/h (3 Bft) 100,00 %
13.09.2023 17:34 18,9 C 18,9 C 15,0 C 81 % 1020,0 hPa 0,0 l/m 0 min 0 min 139 W/m 3,2 km/h (1 Bft) 100,00 %
13.09.2023 17:36 19,0 C 18,9 C 15,0 C 81 % 1020,0 hPa 0,0 l/m 0 min 0 min 130 W/m 6,4 km/h (2 Bft) 95,74 %
13.09.2023 17:38 18,9 C 18,9 C 15,0 C 80 % 1020,0 hPa 0,0 l/m 0 min 0 min 129 W/m 19,3 km/h (3 Bft) 97,87 %
13.09.2023 17:40 18,9 C 18,9 C 15,0 C 79 % 1020,0 hPa 0,0 l/m 0 min 0 min 127 W/m 9,7 km/h (2 Bft) 100,00 %
13.09.2023 17:42 18,9 C 18,9 C 15,0 C 79 % 1020,1 hPa 0,0 l/m 0 min 0 min 107 W/m 12,9 km/h (3 Bft) 97,87 %
13.09.2023 17:44 18,8 C 18,3 C 15,0 C 80 % 1020,1 hPa 0,0 l/m 0 min 0 min 88 W/m 6,4 km/h (2 Bft) 100,00 %
13.09.2023 17:46 18,8 C 18,9 C 14,4 C 80 % 1020,2 hPa 0,0 l/m 0 min 0 min 85 W/m 12,9 km/h (3 Bft) 100,00 %
13.09.2023 17:48 18,8 C 18,9 C 14,4 C 79 % 1020,1 hPa 0,0 l/m 0 min 0 min 128 W/m 12,9 km/h (3 Bft) 100,00 %
13.09.2023 17:50 18,7 C 18,9 C 14,4 C 79 % 1020,3 hPa 0,0 l/m 2 min 0 min 182 W/m 22,5 km/h (4 Bft) 97,87 %
13.09.2023 17:52 18,7 C 20,6 C 15,0 C 80 % 1020,2 hPa 0,0 l/m 2 min 0 min 268 W/m 9,7 km/h (2 Bft) 100,00 %
13.09.2023 17:54 18,8 C 20,0 C 15,0 C 79 % 1020,3 hPa 0,0 l/m 2 min 0 min 325 W/m 12,9 km/h (3 Bft) 100,00 %
13.09.2023 17:56 18,8 C 20,0 C 15,0 C 79 % 1020,2 hPa 0,0 l/m 0 min 0 min 137 W/m 6,4 km/h (2 Bft) 97,87 %
13.09.2023 17:58 18,9 C 19,4 C 15,0 C 79 % 1020,2 hPa 0,0 l/m 0 min 0 min 131 W/m 9,7 km/h (2 Bft) 100,00 %
13.09.2023 18:00 18,9 C 19,4 C 15,0 C 79 % 1020,2 hPa 0,0 l/m 0 min 0 min 141 W/m 12,9 km/h (3 Bft) 100,00 %
13.09.2023 18:02 18,9 C 18,9 C 15,0 C 78 % 1020,2 hPa 0,0 l/m 0 min 0 min 139 W/m 12,9 km/h (3 Bft) 97,87 %
13.09.2023 18:04 18,8 C 18,9 C 15,0 C 78 % 1020,3 hPa 0,0 l/m 0 min 0 min 125 W/m 6,4 km/h (2 Bft) 97,87 %
13.09.2023 18:08 18,9 C 18,9 C 15,0 C 79 % 1020,4 hPa 0,0 l/m 0 min 0 min 114 W/m 9,7 km/h (2 Bft) 100,00 %
13.09.2023 18:10 18,9 C 18,9 C 15,0 C 79 % 1020,3 hPa 0,0 l/m 0 min 0 min 104 W/m 6,4 km/h (2 Bft) 100,00 %
13.09.2023 18:12 18,9 C 18,9 C 15,0 C 79 % 1020,3 hPa 0,0 l/m 0 min 0 min 99 W/m 9,7 km/h (2 Bft) 100,00 %
13.09.2023 18:16 18,8 C 18,3 C 15,0 C 78 % 1020,3 hPa 0,0 l/m 0 min 0 min 95 W/m 9,7 km/h (2 Bft) 95,74 %
13.09.2023 18:18 18,8 C 18,3 C 14,4 C 79 % 1020,3 hPa 0,0 l/m 0 min 0 min 87 W/m 16,1 km/h (3 Bft) 93,62 %
13.09.2023 18:20 18,8 C 18,3 C 15,0 C 79 % 1020,3 hPa 0,0 l/m 0 min 0 min 72 W/m 3,2 km/h (1 Bft) 95,65 %
13.09.2023 18:22 18,8 C 18,3 C 14,4 C 79 % 1020,3 hPa 0,0 l/m 0 min 0 min 73 W/m 3,2 km/h (1 Bft) 95,74 %
13.09.2023 18:24 18,8 C 18,3 C 14,4 C 79 % 1020,3 hPa 0,0 l/m 0 min 0 min 64 W/m 3,2 km/h (1 Bft) 94,29 %
13.09.2023 18:26 18,8 C 18,3 C 14,4 C 80 % 1020,3 hPa 0,0 l/m 0 min 0 min 63 W/m 3,2 km/h (1 Bft) 95,74 %
13.09.2023 18:28 18,8 C 18,3 C 14,4 C 80 % 1020,3 hPa 0,0 l/m 0 min 0 min 66 W/m 3,2 km/h (1 Bft) 95,74 %
13.09.2023 18:30 18,8 C 18,3 C 14,4 C 79 % 1020,4 hPa 0,0 l/m 0 min 0 min 70 W/m 9,7 km/h (2 Bft) 95,74 %
13.09.2023 18:32 18,8 C 18,3 C 14,4 C 79 % 1020,4 hPa 0,0 l/m 0 min 0 min 72 W/m 6,4 km/h (2 Bft) 93,62 %
13.09.2023 18:34 18,8 C 18,3 C 14,4 C 80 % 1020,4 hPa 0,0 l/m 0 min 0 min 70 W/m 3,2 km/h (1 Bft) 91,49 %
13.09.2023 18:36 18,8 C 18,3 C 14,4 C 80 % 1020,4 hPa 0,0 l/m 0 min 0 min 65 W/m 6,4 km/h (2 Bft) 93,62 %
13.09.2023 18:38 18,7 C 18,3 C 14,4 C 79 % 1020,5 hPa 0,0 l/m 0 min 0 min 59 W/m 6,4 km/h (2 Bft) 93,48 %
13.09.2023 18:40 18,7 C 18,3 C 14,4 C 80 % 1020,5 hPa 0,0 l/m 0 min 0 min 55 W/m 3,2 km/h (1 Bft) 91,49 %
13.09.2023 18:42 18,7 C 18,3 C 14,4 C 79 % 1020,5 hPa 0,0 l/m 0 min 0 min 59 W/m 0,0 km/h (0 Bft) 93,62 %
13.09.2023 18:44 18,7 C 18,3 C 14,4 C 80 % 1020,5 hPa 0,0 l/m 0 min 0 min 60 W/m 3,2 km/h (1 Bft) 93,62 %
13.09.2023 18:46 18,7 C 18,3 C 14,4 C 80 % 1020,5 hPa 0,0 l/m 0 min 0 min 59 W/m 9,7 km/h (2 Bft) 91,49 %
13.09.2023 18:48 18,7 C 18,3 C 14,4 C 79 % 1020,5 hPa 0,0 l/m 0 min 0 min 54 W/m 9,7 km/h (2 Bft) 93,62 %
13.09.2023 18:50 18,7 C 18,3 C 14,4 C 79 % 1020,5 hPa 0,0 l/m 0 min 0 min 53 W/m 6,4 km/h (2 Bft) 95,74 %
13.09.2023 18:52 18,7 C 18,3 C 14,4 C 79 % 1020,5 hPa 0,0 l/m 0 min 0 min 48 W/m 6,4 km/h (2 Bft) 93,62 %
13.09.2023 18:54 18,7 C 18,3 C 14,4 C 80 % 1020,6 hPa 0,0 l/m 0 min 0 min 44 W/m 9,7 km/h (2 Bft) 95,65 %
13.09.2023 18:56 18,7 C 18,3 C 14,4 C 80 % 1020,5 hPa 0,0 l/m 0 min 0 min 41 W/m 3,2 km/h (1 Bft) 95,74 %
13.09.2023 18:58 18,7 C 18,3 C 14,4 C 80 % 1020,6 hPa 0,0 l/m 0 min 0 min 39 W/m 6,4 km/h (2 Bft) 93,62 %
13.09.2023 19:00 18,7 C 18,3 C 14,4 C 80 % 1020,6 hPa 0,0 l/m 0 min 0 min 38 W/m 3,2 km/h (1 Bft) 95,74 %
13.09.2023 19:02 18,7 C 18,3 C 14,4 C 81 % 1020,6 hPa 0,0 l/m 0 min 0 min 37 W/m 3,2 km/h (1 Bft) 95,74 %
13.09.2023 19:04 18,8 C 18,3 C 14,4 C 81 % 1020,6 hPa 0,0 l/m 0 min 0 min 39 W/m 9,7 km/h (2 Bft) 92,00 %
13.09.2023 19:06 18,7 C 18,3 C 14,4 C 81 % 1020,6 hPa 0,0 l/m 0 min 0 min 40 W/m 6,4 km/h (2 Bft) 98,28 %
13.09.2023 19:08 18,7 C 18,3 C 14,4 C 82 % 1020,6 hPa 0,0 l/m 0 min 0 min 39 W/m 3,2 km/h (1 Bft) 97,14 %
13.09.2023 19:10 18,7 C 17,8 C 13,9 C 82 % 1020,6 hPa 0,0 l/m 0 min 0 min 39 W/m 3,2 km/h (1 Bft) 93,62 %
13.09.2023 19:12 18,7 C 17,8 C 13,9 C 82 % 1020,6 hPa 0,0 l/m 0 min 0 min 37 W/m 6,4 km/h (2 Bft) 97,87 %
13.09.2023 19:14 18,6 C 17,8 C 13,9 C 82 % 1020,6 hPa 0,0 l/m 0 min 0 min 35 W/m 12,9 km/h (3 Bft) 97,87 %
13.09.2023 19:16 18,6 C 17,8 C 13,9 C 82 % 1020,7 hPa 0,0 l/m 0 min 0 min 33 W/m 3,2 km/h (1 Bft) 91,49 %
13.09.2023 19:18 18,5 C 17,8 C 13,9 C 83 % 1020,8 hPa 0,0 l/m 0 min 0 min 32 W/m 6,4 km/h (2 Bft) 100,00 %
13.09.2023 19:20 18,5 C 17,8 C 13,9 C 83 % 1020,8 hPa 0,0 l/m 0 min 0 min 31 W/m 3,2 km/h (1 Bft) 97,87 %
13.09.2023 19:22 18,5 C 17,8 C 13,9 C 83 % 1020,8 hPa 0,0 l/m 0 min 0 min 26 W/m 0,0 km/h (0 Bft) 95,65 %
13.09.2023 19:24 18,5 C 17,8 C 13,9 C 84 % 1020,8 hPa 0,0 l/m 0 min 0 min 22 W/m 3,2 km/h (1 Bft) 100,00 %
13.09.2023 19:26 18,5 C 17,8 C 13,9 C 84 % 1020,8 hPa 0,0 l/m 0 min 0 min 19 W/m 6,4 km/h (2 Bft) 95,74 %
13.09.2023 19:28 18,5 C 17,8 C 13,9 C 84 % 1020,8 hPa 0,0 l/m 0 min 0 min 18 W/m 3,2 km/h (1 Bft) 95,74 %
13.09.2023 19:30 18,5 C 17,8 C 13,9 C 84 % 1020,8 hPa 0,0 l/m 0 min 0 min 15 W/m 3,2 km/h (1 Bft) 100,00 %
13.09.2023 19:32 18,4 C 17,8 C 13,9 C 84 % 1020,9 hPa 0,0 l/m 0 min 0 min 13 W/m 6,4 km/h (2 Bft) 100,00 %
13.09.2023 19:34 18,4 C 17,8 C 13,9 C 84 % 1020,9 hPa 0,0 l/m 0 min 0 min 12 W/m 3,2 km/h (1 Bft) 97,87 %
13.09.2023 19:36 18,4 C 17,8 C 13,9 C 84 % 1020,9 hPa 0,0 l/m 0 min 0 min 11 W/m 6,4 km/h (2 Bft) 100,00 %
13.09.2023 19:38 18,4 C 17,8 C 13,9 C 84 % 1020,9 hPa 0,0 l/m 0 min 0 min 9 W/m 3,2 km/h (1 Bft) 97,83 %
13.09.2023 19:40 18,3 C 17,2 C 13,9 C 85 % 1020,9 hPa 0,0 l/m 0 min 0 min 9 W/m 6,4 km/h (2 Bft) 95,74 %
13.09.2023 19:42 18,4 C 17,2 C 13,9 C 85 % 1020,9 hPa 0,0 l/m 0 min 0 min 7 W/m 3,2 km/h (1 Bft) 100,00 %
13.09.2023 19:44 18,3 C 17,2 C 13,9 C 84 % 1020,9 hPa 0,0 l/m 0 min 0 min 7 W/m 3,2 km/h (1 Bft) 97,87 %
13.09.2023 19:46 18,3 C 17,2 C 13,3 C 85 % 1020,9 hPa 0,0 l/m 0 min 0 min 5 W/m 3,2 km/h (1 Bft) 100,00 %
13.09.2023 19:48 18,3 C 17,2 C 13,3 C 84 % 1021,0 hPa 0,0 l/m 0 min 0 min 5 W/m 6,4 km/h (2 Bft) 100,00 %
13.09.2023 19:50 18,3 C 17,2 C 13,3 C 84 % 1021,0 hPa 0,0 l/m 0 min 0 min 0 W/m 3,2 km/h (1 Bft) 97,87 %
13.09.2023 19:52 18,3 C 17,2 C 13,3 C 84 % 1021,0 hPa 0,0 l/m 0 min 0 min 0 W/m 3,2 km/h (1 Bft) 97,83 %
13.09.2023 19:54 18,2 C 17,2 C 13,3 C 85 % 1021,0 hPa 0,0 l/m 0 min 0 min 0 W/m 6,4 km/h (2 Bft) 100,00 %
13.09.2023 19:56 18,2 C 17,2 C 13,3 C 85 % 1021,0 hPa 0,0 l/m 0 min 0 min 0 W/m 3,2 km/h (1 Bft) 95,74 %
13.09.2023 19:58 18,2 C 17,2 C 13,3 C 85 % 1021,1 hPa 0,0 l/m 0 min 0 min 0 W/m 0,0 km/h (0 Bft) 100,00 %
13.09.2023 20:00 18,2 C 17,2 C 13,3 C 85 % 1021,1 hPa 0,0 l/m 0 min 0 min 0 W/m 3,2 km/h (1 Bft) 97,87 %
13.09.2023 20:02 18,2 C 17,2 C 13,3 C 85 % 1021,1 hPa 0,0 l/m 0 min 0 min 0 W/m 0,0 km/h (0 Bft) 97,87 %
13.09.2023 20:04 18,1 C 17,2 C 13,3 C 85 % 1021,1 hPa 0,0 l/m 0 min 0 min 0 W/m 3,2 km/h (1 Bft) 100,00 %
13.09.2023 20:06 18,1 C 17,2 C 13,3 C 85 % 1021,2 hPa 0,0 l/m 0 min 0 min 0 W/m 0,0 km/h (0 Bft) 97,83 %
13.09.2023 20:08 18,1 C 17,2 C 13,3 C 85 % 1021,2 hPa 0,0 l/m 0 min 0 min 0 W/m 3,2 km/h (1 Bft) 95,74 %
13.09.2023 20:10 18,1 C 17,2 C 13,3 C 85 % 1021,2 hPa 0,0 l/m 0 min 0 min 0 W/m 0,0 km/h (0 Bft) 97,87 %
13.09.2023 20:12 18,1 C 17,2 C 13,3 C 85 % 1021,2 hPa 0,0 l/m 0 min 0 min 0 W/m 0,0 km/h (0 Bft) 97,87 %
13.09.2023 20:14 18,1 C 17,2 C 13,3 C 86 % 1021,3 hPa 0,0 l/m 0 min 0 min 0 W/m 3,2 km/h (1 Bft) 95,74 %
13.09.2023 20:16 18,1 C 17,2 C 13,3 C 86 % 1021,2 hPa 0,0 l/m 0 min 0 min 0 W/m 0,0 km/h (0 Bft) 97,87 %
13.09.2023 20:18 18,1 C 17,2 C 13,3 C 86 % 1021,2 hPa 0,0 l/m 0 min 0 min 0 W/m 3,2 km/h (1 Bft) 97,87 %
13.09.2023 20:20 18,1 C 17,2 C 13,3 C 86 % 1021,3 hPa 0,0 l/m 0 min 0 min 0 W/m 3,2 km/h (1 Bft) 95,65 %
13.09.2023 20:22 18,0 C 17,2 C 13,3 C 86 % 1021,3 hPa 0,0 l/m 0 min 0 min 0 W/m 3,2 km/h (1 Bft) 97,22 %
13.09.2023 20:24 18,0 C 17,2 C 13,3 C 86 % 1021,3 hPa 0,0 l/m 0 min 0 min 0 W/m 0,0 km/h (0 Bft) 98,28 %
13.09.2023 20:26 18,0 C 17,2 C 13,3 C 86 % 1021,3 hPa 0,0 l/m 0 min 0 min 0 W/m 0,0 km/h (0 Bft) 97,14 %
13.09.2023 20:28 18,0 C 17,2 C 13,3 C 86 % 1021,4 hPa 0,0 l/m 0 min 0 min 0 W/m 6,4 km/h (2 Bft) 97,87 %
13.09.2023 20:30 18,0 C 17,2 C 13,3 C 86 % 1021,4 hPa 0,0 l/m 0 min 0 min 0 W/m 3,2 km/h (1 Bft) 97,87 %
13.09.2023 20:32 17,9 C 17,2 C 13,3 C 86 % 1021,4 hPa 0,0 l/m 0 min 0 min 0 W/m 0,0 km/h (0 Bft) 97,87 %
13.09.2023 20:34 18,0 C 17,2 C 13,3 C 86 % 1021,4 hPa 0,0 l/m 0 min 0 min 0 W/m 0,0 km/h (0 Bft) 97,87 %
13.09.2023 20:36 17,9 C 17,2 C 13,3 C 86 % 1021,4 hPa 0,0 l/m 0 min 0 min 0 W/m 3,2 km/h (1 Bft) 93,62 %
13.09.2023 20:38 17,9 C 17,2 C 13,3 C 86 % 1021,4 hPa 0,0 l/m 0 min 0 min 0 W/m 6,4 km/h (2 Bft) 97,87 %
13.09.2023 20:40 17,9 C 17,2 C 13,3 C 86 % 1021,5 hPa 0,0 l/m 0 min 0 min 0 W/m 3,2 km/h (1 Bft) 100,00 %
13.09.2023 20:42 17,9 C 16,7 C 13,3 C 86 % 1021,5 hPa 0,0 l/m 0 min 0 min 0 W/m 3,2 km/h (1 Bft) 97,87 %
13.09.2023 20:44 17,9 C 17,2 C 13,3 C 86 % 1021,5 hPa 0,0 l/m 0 min 0 min 0 W/m 0,0 km/h (0 Bft) 97,87 %
13.09.2023 20:46 17,9 C 16,7 C 13,3 C 87 % 1021,5 hPa 0,0 l/m 0 min 0 min 0 W/m 0,0 km/h (0 Bft) 97,87 %
13.09.2023 20:48 17,8 C 16,7 C 13,3 C 87 % 1021,5 hPa 0,0 l/m 0 min 0 min 0 W/m 0,0 km/h (0 Bft) 100,00 %
13.09.2023 20:50 17,8 C 16,7 C 13,3 C 87 % 1021,5 hPa 0,0 l/m 0 min 0 min 0 W/m 6,4 km/h (2 Bft) 97,87 %
13.09.2023 20:52 17,8 C 16,7 C 13,3 C 87 % 1021,5 hPa 0,0 l/m 0 min 0 min 0 W/m 3,2 km/h (1 Bft) 100,00 %
13.09.2023 20:54 17,8 C 16,7 C 13,3 C 87 % 1021,6 hPa 0,0 l/m 0 min 0 min 0 W/m 0,0 km/h (0 Bft) 100,00 %
13.09.2023 20:56 17,8 C 16,7 C 13,3 C 87 % 1021,6 hPa 0,0 l/m 0 min 0 min 0 W/m 3,2 km/h (1 Bft) 100,00 %
13.09.2023 20:58 17,8 C 16,7 C 13,3 C 87 % 1021,7 hPa 0,0 l/m 0 min 0 min 0 W/m 0,0 km/h (0 Bft) 100,00 %
13.09.2023 21:00 17,8 C 16,7 C 13,3 C 87 % 1021,7 hPa 0,0 l/m 0 min 0 min 0 W/m 0,0 km/h (0 Bft) 97,87 %
13.09.2023 21:02 17,8 C 16,7 C 13,3 C 87 % 1021,7 hPa 0,0 l/m 0 min 0 min 0 W/m 0,0 km/h (0 Bft) 97,87 %
13.09.2023 21:04 17,8 C 16,7 C 13,3 C 87 % 1021,8 hPa 0,0 l/m 0 min 0 min 0 W/m 0,0 km/h (0 Bft) 100,00 %
13.09.2023 21:06 17,7 C 16,7 C 13,3 C 87 % 1021,7 hPa 0,0 l/m 0 min 0 min 0 W/m 6,4 km/h (2 Bft) 97,87 %
13.09.2023 21:08 17,7 C 16,7 C 13,3 C 87 % 1021,8 hPa 0,0 l/m 0 min 0 min 0 W/m 3,2 km/h (1 Bft) 100,00 %
13.09.2023 21:10 17,7 C 16,7 C 13,3 C 87 % 1021,8 hPa 0,0 l/m 0 min 0 min 0 W/m 0,0 km/h (0 Bft) 93,62 %
13.09.2023 21:12 17,7 C 16,7 C 13,3 C 87 % 1021,8 hPa 0,0 l/m 0 min 0 min 0 W/m 3,2 km/h (1 Bft) 97,87 %
13.09.2023 21:14 17,6 C 16,7 C 12,8 C 87 % 1021,9 hPa 0,0 l/m 0 min 0 min 0 W/m 0,0 km/h (0 Bft) 97,87 %
13.09.2023 21:16 17,6 C 16,7 C 13,3 C 87 % 1021,9 hPa 0,0 l/m 0 min 0 min 0 W/m 0,0 km/h (0 Bft) 97,87 %
13.09.2023 21:18 17,6 C 16,7 C 13,3 C 87 % 1021,9 hPa 0,0 l/m 0 min 0 min 0 W/m 0,0 km/h (0 Bft) 95,74 %
13.09.2023 21:20 17,6 C 16,7 C 13,3 C 87 % 1021,9 hPa 0,0 l/m 0 min 0 min 0 W/m 6,4 km/h (2 Bft) 95,74 %
13.09.2023 21:22 17,6 C 16,7 C 12,8 C 87 % 1021,9 hPa 0,0 l/m 0 min 0 min 0 W/m 3,2 km/h (1 Bft) 97,83 %
13.09.2023 21:24 17,6 C 16,7 C 12,8 C 87 % 1021,9 hPa 0,0 l/m 0 min 0 min 0 W/m 3,2 km/h (1 Bft) 97,87 %
13.09.2023 21:26 17,5 C 16,7 C 12,8 C 87 % 1021,9 hPa 0,0 l/m 0 min 0 min 0 W/m 6,4 km/h (2 Bft) 93,62 %
13.09.2023 21:28 17,5 C 16,7 C 12,8 C 87 % 1021,9 hPa 0,0 l/m 0 min 0 min 0 W/m 3,2 km/h (1 Bft) 95,74 %
13.09.2023 21:30 17,5 C 16,7 C 12,8 C 87 % 1022,0 hPa 0,0 l/m 0 min 0 min 0 W/m 0,0 km/h (0 Bft) 95,74 %
13.09.2023 21:32 17,4 C 16,7 C 12,8 C 87 % 1022,0 hPa 0,0 l/m 0 min 0 min 0 W/m 0,0 km/h (0 Bft) 95,74 %
13.09.2023 21:34 17,4 C 16,1 C 12,8 C 87 % 1022,0 hPa 0,0 l/m 0 min 0 min 0 W/m 3,2 km/h (1 Bft) 93,62 %
13.09.2023 21:36 17,4 C 16,1 C 12,8 C 87 % 1022,0 hPa 0,0 l/m 0 min 0 min 0 W/m 6,4 km/h (2 Bft) 93,48 %
13.09.2023 21:38 17,3 C 16,1 C 12,8 C 87 % 1022,1 hPa 0,0 l/m 0 min 0 min 0 W/m 3,2 km/h (1 Bft) 95,74 %
13.09.2023 21:40 17,3 C 16,1 C 12,8 C 87 % 1022,1 hPa 0,0 l/m 0 min 0 min 0 W/m 3,2 km/h (1 Bft) 93,62 %
13.09.2023 21:42 17,3 C 16,1 C 12,8 C 87 % 1022,1 hPa 0,0 l/m 0 min 0 min 0 W/m 3,2 km/h (1 Bft) 93,62 %
13.09.2023 21:44 17,3 C 16,1 C 12,8 C 87 % 1022,1 hPa 0,0 l/m 0 min 0 min 0 W/m 0,0 km/h (0 Bft) 95,74 %
13.09.2023 21:46 17,2 C 16,1 C 12,8 C 87 % 1022,1 hPa 0,0 l/m 0 min 0 min 0 W/m 0,0 km/h (0 Bft) 93,62 %
13.09.2023 21:48 17,2 C 16,1 C 12,8 C 88 % 1022,1 hPa 0,0 l/m 0 min 0 min 0 W/m 0,0 km/h (0 Bft) 91,49 %
13.09.2023 21:50 17,2 C 16,1 C 12,8 C 88 % 1022,1 hPa 0,0 l/m 0 min 0 min 0 W/m 0,0 km/h (0 Bft) 95,65 %
13.09.2023 21:52 17,2 C 16,1 C 12,8 C 88 % 1022,1 hPa 0,0 l/m 0 min 0 min 0 W/m 0,0 km/h (0 Bft) 93,62 %
13.09.2023 21:54 17,2 C 16,1 C 12,8 C 88 % 1022,1 hPa 0,0 l/m 0 min 0 min 0 W/m 0,0 km/h (0 Bft) 95,74 %
13.09.2023 21:56 17,1 C 16,1 C 12,8 C 88 % 1022,2 hPa 0,0 l/m 0 min 0 min 0 W/m 0,0 km/h (0 Bft) 95,74 %
13.09.2023 21:58 17,1 C 16,1 C 12,8 C 88 % 1022,1 hPa 0,0 l/m 0 min 0 min 0 W/m 0,0 km/h (0 Bft) 91,49 %
13.09.2023 22:00 17,1 C 16,1 C 12,8 C 88 % 1022,1 hPa 0,0 l/m 0 min 0 min 0 W/m 0,0 km/h (0 Bft) 95,74 %
13.09.2023 22:02 17,1 C 16,1 C 12,8 C 88 % 1022,1 hPa 0,0 l/m 0 min 0 min 0 W/m 0,0 km/h (0 Bft) 95,74 %
13.09.2023 22:04 17,1 C 16,1 C 12,8 C 88 % 1022,1 hPa 0,0 l/m 0 min 0 min 0 W/m 0,0 km/h (0 Bft) 96,00 %
13.09.2023 22:06 17,1 C 16,1 C 12,8 C 88 % 1022,2 hPa 0,0 l/m 0 min 0 min 0 W/m 0,0 km/h (0 Bft) 95,65 %
13.09.2023 22:08 17,1 C 16,1 C 12,8 C 89 % 1022,2 hPa 0,0 l/m 0 min 0 min 0 W/m 0,0 km/h (0 Bft) 97,87 %
13.09.2023 22:10 17,1 C 16,1 C 12,8 C 89 % 1022,2 hPa 0,0 l/m 0 min 0 min 0 W/m 0,0 km/h (0 Bft) 95,74 %
13.09.2023 22:12 17,1 C 16,1 C 12,8 C 89 % 1022,2 hPa 0,0 l/m 0 min 0 min 0 W/m 0,0 km/h (0 Bft) 93,62 %
13.09.2023 22:14 17,1 C 16,1 C 12,8 C 89 % 1022,2 hPa 0,0 l/m 0 min 0 min 0 W/m 0,0 km/h (0 Bft) 93,62 %
13.09.2023 22:16 17,0 C 15,6 C 12,2 C 89 % 1022,2 hPa 0,0 l/m 0 min 0 min 0 W/m 0,0 km/h (0 Bft) 95,74 %
13.09.2023 22:18 17,0 C 15,6 C 12,2 C 89 % 1022,2 hPa 0,0 l/m 0 min 0 min 0 W/m 0,0 km/h (0 Bft) 95,74 %
13.09.2023 22:20 16,9 C 15,6 C 12,2 C 89 % 1022,2 hPa 0,0 l/m 0 min 0 min 0 W/m 0,0 km/h (0 Bft) 97,87 %
13.09.2023 22:22 16,9 C 15,6 C 12,2 C 89 % 1022,2 hPa 0,0 l/m 0 min 0 min 0 W/m 0,0 km/h (0 Bft) 95,65 %
13.09.2023 22:24 16,9 C 15,6 C 12,2 C 89 % 1022,2 hPa 0,0 l/m 0 min 0 min 0 W/m 0,0 km/h (0 Bft) 97,87 %
13.09.2023 22:26 16,9 C 15,6 C 12,2 C 89 % 1022,2 hPa 0,0 l/m 0 min 0 min 0 W/m 0,0 km/h (0 Bft) 100,00 %
13.09.2023 22:28 16,8 C 15,6 C 12,2 C 89 % 1022,3 hPa 0,0 l/m 0 min 0 min 0 W/m 0,0 km/h (0 Bft) 97,87 %
13.09.2023 22:30 16,8 C 15,6 C 12,2 C 89 % 1022,3 hPa 0,0 l/m 0 min 0 min 0 W/m 0,0 km/h (0 Bft) 97,87 %
13.09.2023 22:32 16,8 C 15,6 C 12,2 C 90 % 1022,3 hPa 0,0 l/m 0 min 0 min 0 W/m 0,0 km/h (0 Bft) 100,00 %
13.09.2023 22:34 16,8 C 15,6 C 12,2 C 90 % 1022,3 hPa 0,0 l/m 0 min 0 min 0 W/m 0,0 km/h (0 Bft) 100,00 %
13.09.2023 22:36 16,8 C 15,6 C 12,2 C 90 % 1022,4 hPa 0,0 l/m 0 min 0 min 0 W/m 0,0 km/h (0 Bft) 97,83 %
13.09.2023 22:38 16,8 C 15,6 C 12,2 C 90 % 1022,4 hPa 0,0 l/m 0 min 0 min 0 W/m 0,0 km/h (0 Bft) 100,00 %
13.09.2023 22:40 16,8 C 15,6 C 12,2 C 90 % 1022,3 hPa 0,0 l/m 0 min 0 min 0 W/m 0,0 km/h (0 Bft) 100,00 %
13.09.2023 22:42 16,7 C 15,6 C 12,2 C 90 % 1022,3 hPa 0,0 l/m 0 min 0 min 0 W/m 0,0 km/h (0 Bft) 97,87 %
13.09.2023 22:44 16,7 C 15,6 C 12,2 C 90 % 1022,4 hPa 0,0 l/m 0 min 0 min 0 W/m 0,0 km/h (0 Bft) 97,87 %
13.09.2023 22:46 16,7 C 15,6 C 12,2 C 90 % 1022,4 hPa 0,0 l/m 0 min 0 min 0 W/m 0,0 km/h (0 Bft) 100,00 %
13.09.2023 22:48 16,7 C 15,6 C 12,2 C 90 % 1022,4 hPa 0,0 l/m 0 min 0 min 0 W/m 0,0 km/h (0 Bft) 95,74 %
13.09.2023 22:50 16,7 C 15,0 C 11,7 C 90 % 1022,4 hPa 0,0 l/m 0 min 0 min 0 W/m 0,0 km/h (0 Bft) 100,00 %
13.09.2023 22:52 16,6 C 15,0 C 11,7 C 90 % 1022,4 hPa 0,0 l/m 0 min 0 min 0 W/m 3,2 km/h (1 Bft) 100,00 %
13.09.2023 22:54 16,6 C 15,0 C 11,7 C 90 % 1022,4 hPa 0,0 l/m 0 min 0 min 0 W/m 0,0 km/h (0 Bft) 100,00 %
13.09.2023 22:56 16,6 C 15,0 C 11,7 C 90 % 1022,4 hPa 0,0 l/m 0 min 0 min 0 W/m 0,0 km/h (0 Bft) 100,00 %
13.09.2023 22:58 16,5 C 15,0 C 11,7 C 90 % 1022,4 hPa 0,0 l/m 0 min 0 min 0 W/m 0,0 km/h (0 Bft) 100,00 %
13.09.2023 23:00 16,5 C 15,0 C 11,7 C 90 % 1022,4 hPa 0,0 l/m 0 min 0 min 0 W/m 0,0 km/h (0 Bft) 100,00 %
13.09.2023 23:02 16,4 C 15,0 C 11,7 C 91 % 1022,4 hPa 0,0 l/m 0 min 0 min 0 W/m 0,0 km/h (0 Bft) 100,00 %
13.09.2023 23:04 16,4 C 15,0 C 11,7 C 91 % 1022,4 hPa 0,0 l/m 0 min 0 min 0 W/m 0,0 km/h (0 Bft) 100,00 %
13.09.2023 23:06 16,3 C 15,0 C 11,7 C 90 % 1022,4 hPa 0,0 l/m 0 min 0 min 0 W/m 0,0 km/h (0 Bft) 100,00 %
13.09.2023 23:08 16,3 C 15,0 C 11,7 C 90 % 1022,4 hPa 0,0 l/m 0 min 0 min 0 W/m 0,0 km/h (0 Bft) 100,00 %
13.09.2023 23:10 16,3 C 14,4 C 11,7 C 90 % 1022,4 hPa 0,0 l/m 0 min 0 min 0 W/m 3,2 km/h (1 Bft) 100,00 %
13.09.2023 23:12 16,2 C 14,4 C 11,7 C 90 % 1022,4 hPa 0,0 l/m 0 min 0 min 0 W/m 0,0 km/h (0 Bft) 100,00 %
13.09.2023 23:14 16,2 C 14,4 C 11,7 C 91 % 1022,4 hPa 0,0 l/m 0 min 0 min 0 W/m 0,0 km/h (0 Bft) 100,00 %
13.09.2023 23:16 16,1 C 14,4 C 11,7 C 91 % 1022,3 hPa 0,0 l/m 0 min 0 min 0 W/m 0,0 km/h (0 Bft) 98,00 %
13.09.2023 23:18 16,1 C 14,4 C 11,1 C 91 % 1022,3 hPa 0,0 l/m 0 min 0 min 0 W/m 0,0 km/h (0 Bft) 100,00 %
13.09.2023 23:20 16,0 C 14,4 C 11,1 C 91 % 1022,3 hPa 0,0 l/m 0 min 0 min 0 W/m 0,0 km/h (0 Bft) 100,00 %
13.09.2023 23:22 15,9 C 14,4 C 11,1 C 90 % 1022,4 hPa 0,0 l/m 0 min 0 min 0 W/m 0,0 km/h (0 Bft) 100,00 %
13.09.2023 23:24 15,8 C 14,4 C 11,1 C 90 % 1022,4 hPa 0,0 l/m 0 min 0 min 0 W/m 0,0 km/h (0 Bft) 100,00 %
13.09.2023 23:26 15,8 C 14,4 C 11,1 C 90 % 1022,4 hPa 0,0 l/m 0 min 0 min 0 W/m 3,2 km/h (1 Bft) 100,00 %
13.09.2023 23:28 15,8 C 14,4 C 11,1 C 91 % 1022,4 hPa 0,0 l/m 0 min 0 min 0 W/m 0,0 km/h (0 Bft) 100,00 %
13.09.2023 23:30 15,7 C 14,4 C 11,1 C 90 % 1022,4 hPa 0,0 l/m 0 min 0 min 0 W/m 6,4 km/h (2 Bft) 100,00 %
13.09.2023 23:32 15,6 C 14,4 C 11,1 C 90 % 1022,4 hPa 0,0 l/m 0 min 0 min 0 W/m 0,0 km/h (0 Bft) 100,00 %
13.09.2023 23:34 15,6 C 14,4 C 11,1 C 90 % 1022,4 hPa 0,0 l/m 0 min 0 min 0 W/m 3,2 km/h (1 Bft) 100,00 %
13.09.2023 23:36 15,6 C 14,4 C 11,1 C 90 % 1022,4 hPa 0,0 l/m 0 min 0 min 0 W/m 0,0 km/h (0 Bft) 95,74 %
13.09.2023 23:38 15,6 C 14,4 C 11,1 C 90 % 1022,4 hPa 0,0 l/m 0 min 0 min 0 W/m 0,0 km/h (0 Bft) 100,00 %
13.09.2023 23:40 15,5 C 14,4 C 11,1 C 90 % 1022,4 hPa 0,0 l/m 0 min 0 min 0 W/m 0,0 km/h (0 Bft) 100,00 %
13.09.2023 23:42 15,4 C 14,4 C 11,1 C 91 % 1022,4 hPa 0,0 l/m 0 min 0 min 0 W/m 0,0 km/h (0 Bft) 97,87 %
13.09.2023 23:44 15,4 C 14,4 C 11,1 C 91 % 1022,5 hPa 0,0 l/m 0 min 0 min 0 W/m 0,0 km/h (0 Bft) 95,74 %
13.09.2023 23:46 15,4 C 14,4 C 11,1 C 91 % 1022,4 hPa 0,0 l/m 0 min 0 min 0 W/m 0,0 km/h (0 Bft) 95,74 %
13.09.2023 23:48 15,4 C 14,4 C 11,1 C 91 % 1022,4 hPa 0,0 l/m 0 min 0 min 0 W/m 0,0 km/h (0 Bft) 97,83 %
13.09.2023 23:50 15,3 C 13,9 C 11,1 C 91 % 1022,5 hPa 0,0 l/m 0 min 0 min 0 W/m 0,0 km/h (0 Bft) 95,74 %
13.09.2023 23:52 15,3 C 13,9 C 11,1 C 91 % 1022,5 hPa 0,0 l/m 0 min 0 min 0 W/m 0,0 km/h (0 Bft) 95,74 %
13.09.2023 23:54 15,3 C 13,9 C 11,1 C 91 % 1022,5 hPa 0,0 l/m 0 min 0 min 0 W/m 0,0 km/h (0 Bft) 95,74 %
13.09.2023 23:56 15,3 C 13,9 C 11,1 C 91 % 1022,5 hPa 0,0 l/m 0 min 0 min 0 W/m 0,0 km/h (0 Bft) 93,62 %
13.09.2023 23:58 15,2 C 13,9 C 11,1 C 91 % 1022,5 hPa 0,0 l/m 0 min 0 min 0 W/m 3,2 km/h (1 Bft) 91,49 %
_ Min-Zeit 23:58 23:50 23:18 18:02 01:50 - - - - 01:40 01:02
Minimum _ 15,2 C 13,9 C 11,1 C 78 % 1012,7 hPa - - - - 0,0 km/h (0 Bft) 91,49 %
_ Max-Zeit 12:08 11:50 11:42 03:02 23:44 00:26 09:56 00:02 14:02 14:52 00:00
Maximum _ 20,8 C 22,8 C 17,8 C 99 % 1022,5 hPa 0,2 l/m 2 min 2 min 863 W/m 25,7 km/h
N-NW (4 Bft)
100,00 %
Durchschnitt _ 18,5 C 18,0 C 14,3 C 92 % 1017,2 hPa #1,2 l/m #1:10 h #48 min. 142 W/m 7,4 km/h (2 Bft) 97,52 %
© 2023 W. Hausmann